
Distance (Route):
Temperature : 22.4°C
Humidity : 47.0%
Pressure : 0hPa| Receiver | Frames | First received | Last received |
|---|---|---|---|
| DL9RDZ-1 | 422 | 2026-09-04 11:19:58 | 2026-09-04 18:47:52 |
| Receiver | Date | Latitude | Longitude | Direction | Speed | Altitude | Climb | Temperature | Humidity | Pressure | Voltage | Killtimer | Uptime | BKT | XDATA |
|---|---|---|---|---|---|---|---|---|---|---|---|---|---|---|---|
| DL9RDZ-1 | 2026-09-04 18:47:52 | 64.12474 | -21.89932 | 356° | 69km/h | 100m | 0.9m/s | 22.4°C | 47.0% | 0hPa | 0V | 02:31:00 | 00:00:00 | 00:00:00 | |
| DL9RDZ-1 | 2026-09-04 18:47:41 | 64.12275 | -21.89893 | 357° | 73km/h | 86m | 1.1m/s | 22.3°C | 47.4% | 0hPa | 0V | 02:31:00 | 00:00:00 | 00:00:00 | |
| DL9RDZ-1 | 2026-09-04 18:47:31 | 64.12092 | -21.89857 | 357° | 73km/h | 79m | 0.6m/s | 22.2°C | 47.7% | 0hPa | 0V | 02:31:00 | 00:00:00 | 00:00:00 | |
| DL9RDZ-1 | 2026-09-04 18:47:21 | 64.11915 | -21.89827 | 357° | 71km/h | 76m | 0.3m/s | 22.3°C | 47.4% | 0hPa | 0V | 02:31:00 | 00:00:00 | 00:00:00 | |
| DL9RDZ-1 | 2026-09-04 18:47:10 | 64.11721 | -21.89797 | 1° | 71km/h | 74m | -0.1m/s | 22.3°C | 47.3% | 0hPa | 0V | 02:31:00 | 00:00:00 | 00:00:00 | |
| DL9RDZ-1 | 2026-09-04 18:46:59 | 64.11536 | -21.89919 | 34° | 69km/h | 79m | -0.9m/s | 22.3°C | 47.6% | 0hPa | 0V | 02:31:00 | 00:00:00 | 00:00:00 | |
| DL9RDZ-1 | 2026-09-04 18:46:48 | 64.11406 | -21.90229 | 56° | 68km/h | 88m | -0.8m/s | 22.4°C | 47.5% | 0hPa | 0V | 02:31:00 | 00:00:00 | 00:00:00 | |
| DL9RDZ-1 | 2026-09-04 18:46:38 | 64.11310 | -21.90537 | 50° | 62km/h | 101m | -0.6m/s | 22.3°C | 47.9% | 0hPa | 0V | 00:00:00 | 00:00:00 | 00:00:00 | |
| DL9RDZ-1 | 2026-09-04 18:46:27 | 64.11162 | -21.90780 | 360° | 58km/h | 93m | -1.4m/s | 22.3°C | 47.5% | 0hPa | 0V | 00:00:00 | 00:00:00 | 00:00:00 | |
| DL9RDZ-1 | 2026-09-04 13:05:56 | 64.03145 | -21.88315 | 129° | 26km/h | 340m | -13.9m/s | 8.2°C | 88.1% | 0hPa | 0V | 08:12:00 | 00:00:00 | 00:00:00 | |
| DL9RDZ-1 | 2026-09-04 13:05:46 | 64.03181 | -21.88403 | 139° | 22km/h | 466m | -13.9m/s | 7.0°C | 92.6% | 0hPa | 0V | 08:13:00 | 00:00:00 | 00:00:00 | |
| DL9RDZ-1 | 2026-09-04 13:05:36 | 64.03232 | -21.88503 | 144° | 27km/h | 615m | -15.1m/s | 5.7°C | 90.4% | 0hPa | 0V | 08:13:00 | 00:00:00 | 00:00:00 | |
| DL9RDZ-1 | 2026-09-04 13:05:25 | 64.03290 | -21.88601 | 151° | 26km/h | 771m | -14.0m/s | 4.5°C | 89.8% | 0hPa | 0V | 08:13:00 | 00:00:00 | 00:00:00 | |
| DL9RDZ-1 | 2026-09-04 13:05:14 | 64.03339 | -21.88666 | 151° | 22km/h | 906m | -14.9m/s | 3.6°C | 92.0% | 0hPa | 0V | 08:13:00 | 00:00:00 | 00:00:00 | |
| DL9RDZ-1 | 2026-09-04 13:05:04 | 64.03380 | -21.88721 | 159° | 15km/h | 1043m | -14.2m/s | 3.1°C | 90.3% | 0hPa | 0V | 08:13:00 | 00:00:00 | 00:00:00 | |
| DL9RDZ-1 | 2026-09-04 13:04:53 | 64.03423 | -21.88777 | 150° | 22km/h | 1200m | -14.8m/s | 2.4°C | 86.9% | 0hPa | 0V | 08:14:00 | 00:00:00 | 00:00:00 | |
| DL9RDZ-1 | 2026-09-04 13:04:42 | 64.03468 | -21.88841 | 147° | 20km/h | 1350m | -14.3m/s | 1.0°C | 94.7% | 0hPa | 0V | 08:14:00 | 00:00:00 | 00:00:00 | |
| DL9RDZ-1 | 2026-09-04 13:04:31 | 64.03516 | -21.88901 | 157° | 18km/h | 1499m | -12.6m/s | -0.3°C | 0% | 0hPa | 0V | 08:14:00 | 00:00:00 | 00:00:00 | |
| DL9RDZ-1 | 2026-09-04 13:04:21 | 64.03551 | -21.88939 | 158° | 11km/h | 1627m | -14.7m/s | 0.1°C | 89.9% | 0hPa | 0V | 08:14:00 | 00:00:00 | 00:00:00 | |
| DL9RDZ-1 | 2026-09-04 13:04:11 | 64.03576 | -21.88941 | 173° | 11km/h | 1764m | -14.4m/s | -0.7°C | 94.5% | 0hPa | 0V | 08:14:00 | 00:00:00 | 00:00:00 | |
| DL9RDZ-1 | 2026-09-04 13:04:01 | 64.03595 | -21.88969 | 146° | 13km/h | 1902m | -15.1m/s | -1.2°C | 91.1% | 0hPa | 0V | 08:15:00 | 00:00:00 | 00:00:00 | |
| DL9RDZ-1 | 2026-09-04 13:03:51 | 64.03611 | -21.88987 | 176° | 4km/h | 2046m | -15.3m/s | -1.7°C | 83.2% | 0hPa | 0V | 08:15:00 | 00:00:00 | 00:00:00 | |
| DL9RDZ-1 | 2026-09-04 13:03:41 | 64.03621 | -21.88968 | 247° | 4km/h | 2209m | -15.7m/s | -2.7°C | 91.0% | 0hPa | 0V | 08:15:00 | 00:00:00 | 00:00:00 | |
| DL9RDZ-1 | 2026-09-04 13:03:30 | 64.03625 | -21.88949 | 213° | 4km/h | 2355m | -15.1m/s | -3.8°C | 93.2% | 0hPa | 0V | 08:15:00 | 00:00:00 | 00:00:00 | |
| DL9RDZ-1 | 2026-09-04 13:03:19 | 64.03632 | -21.88940 | 228° | 4km/h | 2510m | -15.6m/s | -4.6°C | 87.6% | 0hPa | 0V | 08:15:00 | 00:00:00 | 00:00:00 | |
| DL9RDZ-1 | 2026-09-04 13:03:09 | 64.03637 | -21.88940 | 191° | 5km/h | 2655m | -15.2m/s | -5.1°C | 80.0% | 0hPa | 0V | 08:16:00 | 00:00:00 | 00:00:00 | |
| DL9RDZ-1 | 2026-09-04 13:02:59 | 64.03643 | -21.88955 | 156° | 4km/h | 2803m | -15.7m/s | -6.2°C | 83.5% | 0hPa | 0V | 08:16:00 | 00:00:00 | 00:00:00 | |
| DL9RDZ-1 | 2026-09-04 13:02:49 | 64.03650 | -21.88981 | 103° | 5km/h | 2946m | -15.7m/s | -6.9°C | 77.5% | 0hPa | 0V | 08:16:00 | 00:00:00 | 00:00:00 | |
| DL9RDZ-1 | 2026-09-04 13:02:39 | 64.03643 | -21.89026 | 86° | 9km/h | 3098m | -15.7m/s | -8.1°C | 80.6% | 0hPa | 0V | 08:16:00 | 00:00:00 | 00:00:00 | |
| DL9RDZ-1 | 2026-09-04 13:02:28 | 64.03645 | -21.89080 | 100° | 7km/h | 3265m | -15.4m/s | -9.2°C | 77.4% | 0hPa | 0V | 08:16:00 | 00:00:00 | 00:00:00 | |
| DL9RDZ-1 | 2026-09-04 13:02:18 | 64.03651 | -21.89109 | 140° | 5km/h | 3430m | -16.0m/s | -10.3°C | 64.2% | 0hPa | 0V | 08:17:00 | 00:00:00 | 00:00:00 | |
| DL9RDZ-1 | 2026-09-04 13:02:07 | 64.03653 | -21.89127 | 123° | 4km/h | 3583m | -16.2m/s | -11.1°C | 63.7% | 0hPa | 0V | 08:17:00 | 00:00:00 | 00:00:00 | |
| DL9RDZ-1 | 2026-09-04 13:01:56 | 64.03660 | -21.89170 | 111° | 15km/h | 3741m | -16.0m/s | -11.1°C | 43.1% | 0hPa | 0V | 08:17:00 | 00:00:00 | 00:00:00 | |
| DL9RDZ-1 | 2026-09-04 13:01:45 | 64.03679 | -21.89250 | 123° | 15km/h | 3919m | -17.5m/s | -12.4°C | 62.4% | 0hPa | 0V | 08:17:00 | 00:00:00 | 00:00:00 | |
| DL9RDZ-1 | 2026-09-04 13:01:34 | 64.03702 | -21.89310 | 145° | 13km/h | 4096m | -17.2m/s | -14.0°C | 72.9% | 0hPa | 0V | 08:17:00 | 00:00:00 | 00:00:00 | |
| DL9RDZ-1 | 2026-09-04 13:01:13 | 64.03743 | -21.89388 | 99° | 13km/h | 4439m | -17.2m/s | -15.7°C | 73.2% | 0hPa | 0V | 08:17:00 | 00:00:00 | 00:00:00 | |
| DL9RDZ-1 | 2026-09-04 13:01:02 | 64.03755 | -21.89452 | 144° | 7km/h | 4623m | -17.4m/s | -16.6°C | 56.4% | 0hPa | 0V | 08:17:00 | 00:00:00 | 00:00:00 | |
| DL9RDZ-1 | 2026-09-04 13:00:52 | 64.03769 | -21.89490 | 131° | 9km/h | 4795m | -16.8m/s | -18.1°C | 71.1% | 0hPa | 0V | 08:17:00 | 00:00:00 | 00:00:00 | |
| DL9RDZ-1 | 2026-09-04 13:00:41 | 64.03786 | -21.89541 | 129° | 11km/h | 4980m | -17.4m/s | -19.5°C | 65.6% | 0hPa | 0V | 08:18:00 | 00:00:00 | 00:00:00 | |
| DL9RDZ-1 | 2026-09-04 13:00:31 | 64.03802 | -21.89580 | 131° | 9km/h | 5152m | -18.4m/s | -20.9°C | 62.1% | 0hPa | 0V | 08:18:00 | 00:00:00 | 00:00:00 | |
| DL9RDZ-1 | 2026-09-04 13:00:21 | 64.03818 | -21.89625 | 128° | 13km/h | 5326m | -17.9m/s | -22.5°C | 68.4% | 0hPa | 0V | 08:18:00 | 00:00:00 | 00:00:00 | |
| DL9RDZ-1 | 2026-09-04 13:00:00 | 64.03854 | -21.89749 | 126° | 11km/h | 5682m | -18.0m/s | -25.5°C | 75.9% | 0hPa | 0V | 08:18:00 | 00:00:00 | 00:00:00 | |
| DL9RDZ-1 | 2026-09-04 12:59:50 | 64.03882 | -21.89820 | 139° | 16km/h | 5869m | -17.1m/s | -26.8°C | 77.8% | 0hPa | 0V | 08:19:00 | 00:00:00 | 00:00:00 | |
| DL9RDZ-1 | 2026-09-04 12:59:39 | 64.03914 | -21.89891 | 139° | 16km/h | 6037m | -17.2m/s | -28.0°C | 76.6% | 0hPa | 0V | 08:19:00 | 00:00:00 | 00:00:00 | |
| DL9RDZ-1 | 2026-09-04 12:59:29 | 64.03953 | -21.89974 | 138° | 24km/h | 6211m | -18.5m/s | -29.4°C | 64.4% | 0hPa | 0V | 08:19:00 | 00:00:00 | 00:00:00 | |
| DL9RDZ-1 | 2026-09-04 12:59:17 | 64.04008 | -21.90090 | 144° | 24km/h | 6446m | -17.3m/s | -31.3°C | 66.5% | 0hPa | 0V | 08:19:00 | 00:00:00 | 00:00:00 | |
| DL9RDZ-1 | 2026-09-04 12:59:07 | 64.04044 | -21.90184 | 125° | 18km/h | 6618m | -17.9m/s | -32.6°C | 70.3% | 0hPa | 0V | 08:19:00 | 00:00:00 | 00:00:00 | |
| DL9RDZ-1 | 2026-09-04 12:58:55 | 64.04072 | -21.90287 | 128° | 16km/h | 6811m | -18.0m/s | -34.1°C | 71.1% | 0hPa | 0V | 00:00:00 | 00:00:00 | 00:00:00 | |
| DL9RDZ-1 | 2026-09-04 12:58:44 | 64.04096 | -21.90382 | 126° | 15km/h | 7011m | -19.0m/s | -35.8°C | 73.3% | 0hPa | 0V | 00:00:00 | 00:00:00 | 00:00:00 | |
| DL9RDZ-1 | 2026-09-04 12:58:33 | 64.04116 | -21.90463 | 116° | 13km/h | 7212m | -18.6m/s | -37.3°C | 71.4% | 0hPa | 0V | 00:00:00 | 00:00:00 | 00:00:00 | |
| DL9RDZ-1 | 2026-09-04 12:58:23 | 64.04134 | -21.90532 | 125° | 15km/h | 7398m | -19.7m/s | -38.7°C | 66.6% | 0hPa | 0V | 00:00:00 | 00:00:00 | 00:00:00 | |
| DL9RDZ-1 | 2026-09-04 12:58:12 | 64.04157 | -21.90597 | 139° | 11km/h | 7611m | -19.4m/s | -40.5°C | 71.6% | 0hPa | 0V | 00:00:00 | 00:00:00 | 00:00:00 | |
| DL9RDZ-1 | 2026-09-04 12:58:01 | 64.04177 | -21.90662 | 116° | 9km/h | 7819m | -19.1m/s | -42.0°C | 66.3% | 0hPa | 0V | 08:21:00 | 00:00:00 | 00:00:00 | |
| DL9RDZ-1 | 2026-09-04 12:57:51 | 64.04193 | -21.90713 | 121° | 9km/h | 8032m | -21.4m/s | -43.7°C | 61.4% | 0hPa | 0V | 08:21:00 | 00:00:00 | 00:00:00 | |
| DL9RDZ-1 | 2026-09-04 12:57:40 | 64.04205 | -21.90769 | 117° | 9km/h | 8238m | -20.7m/s | -45.6°C | 56.8% | 0hPa | 0V | 08:21:00 | 00:00:00 | 00:00:00 | |
| DL9RDZ-1 | 2026-09-04 12:57:25 | 64.04203 | -21.90818 | 337° | 4km/h | 8549m | -20.4m/s | -47.7°C | 47.2% | 0hPa | 0V | 08:21:00 | 00:00:00 | 00:00:00 | |
| DL9RDZ-1 | 2026-09-04 12:57:14 | 64.04192 | -21.90811 | 339° | 7km/h | 8779m | -21.0m/s | -49.0°C | 56.2% | 0hPa | 0V | 08:22:00 | 00:00:00 | 00:00:00 | |
| DL9RDZ-1 | 2026-09-04 12:57:03 | 64.04166 | -21.90780 | 318° | 9km/h | 9012m | -20.4m/s | -50.7°C | 53.8% | 0hPa | 0V | 08:22:00 | 00:00:00 | 00:00:00 | |
| DL9RDZ-1 | 2026-09-04 12:56:52 | 64.04136 | -21.90772 | 358° | 11km/h | 9226m | -19.1m/s | -51.9°C | 37.8% | 0hPa | 0V | 08:22:00 | 00:00:00 | 00:00:00 | |
| DL9RDZ-1 | 2026-09-04 12:56:41 | 64.04109 | -21.90812 | 47° | 15km/h | 9439m | -20.1m/s | -52.8°C | 30.1% | 0hPa | 0V | 08:22:00 | 00:00:00 | 00:00:00 | |
| DL9RDZ-1 | 2026-09-04 12:56:30 | 64.04092 | -21.90887 | 79° | 11km/h | 9670m | -22.2m/s | -53.2°C | 26.7% | 0hPa | 0V | 08:22:00 | 00:00:00 | 00:00:00 | |
| DL9RDZ-1 | 2026-09-04 12:56:20 | 64.04079 | -21.90937 | 43° | 9km/h | 9884m | -21.0m/s | -53.7°C | 20.8% | 0hPa | 0V | 08:22:00 | 00:00:00 | 00:00:00 | |
| DL9RDZ-1 | 2026-09-04 12:56:09 | 64.04047 | -21.91025 | 62° | 22km/h | 10111m | -22.8m/s | -53.4°C | 14.0% | 0hPa | 0V | 08:22:00 | 00:00:00 | 00:00:00 | |
| DL9RDZ-1 | 2026-09-04 12:55:47 | 64.04018 | -21.91247 | 69° | 24km/h | 10595m | -24.2m/s | -50.1°C | 3.6% | 0hPa | 0V | 08:22:00 | 00:00:00 | 00:00:00 | |
| DL9RDZ-1 | 2026-09-04 12:55:37 | 64.04007 | -21.91381 | 91° | 24km/h | 10830m | -23.7m/s | -47.9°C | 2.3% | 0hPa | 0V | 00:00:00 | 00:00:00 | 00:00:00 | |
| DL9RDZ-1 | 2026-09-04 12:55:27 | 64.04005 | -21.91537 | 83° | 31km/h | 11054m | -22.6m/s | -46.8°C | 1.8% | 0hPa | 0V | 00:00:00 | 00:00:00 | 00:00:00 | |
| DL9RDZ-1 | 2026-09-04 12:55:16 | 64.03996 | -21.91723 | 78° | 35km/h | 11312m | -24.8m/s | -46.4°C | 1.6% | 0hPa | 0V | 00:00:00 | 00:00:00 | 00:00:00 | |
| DL9RDZ-1 | 2026-09-04 12:54:56 | 64.03970 | -21.92018 | 74° | 35km/h | 11833m | -26.3m/s | -45.8°C | 1.2% | 0hPa | 0V | 00:00:00 | 00:00:00 | 00:00:00 | |
| DL9RDZ-1 | 2026-09-04 12:54:44 | 64.03944 | -21.92229 | 81° | 33km/h | 12105m | -25.3m/s | -45.8°C | 1.2% | 0hPa | 0V | 00:00:00 | 00:00:00 | 00:00:00 | |
| DL9RDZ-1 | 2026-09-04 12:54:29 | 64.03919 | -21.92531 | 84° | 37km/h | 12490m | -26.7m/s | -45.0°C | 0.6% | 0hPa | 0V | 00:00:00 | 00:00:00 | 00:00:00 | |
| DL9RDZ-1 | 2026-09-04 12:47:05 | 64.02761 | -21.99486 | 40° | 31km/h | 27641m | 5.2m/s | -45.7°C | 0.6% | 0hPa | 0V | 00:00:00 | 00:00:00 | 00:00:00 | |
| DL9RDZ-1 | 2026-09-04 12:46:54 | 64.02695 | -21.99626 | 39° | 27km/h | 27576m | 6.8m/s | -46.6°C | 0.7% | 0hPa | 0V | 00:00:00 | 00:00:00 | 00:00:00 | |
| DL9RDZ-1 | 2026-09-04 12:46:43 | 64.02599 | -21.99722 | 33° | 33km/h | 27510m | 5.7m/s | -47.0°C | 0.7% | 0hPa | 0V | 00:00:00 | 00:00:00 | 00:00:00 | |
| DL9RDZ-1 | 2026-09-04 12:46:33 | 64.02533 | -21.99793 | 361° | 35km/h | 27451m | 5.3m/s | -47.0°C | 0.7% | 0hPa | 0V | 00:00:00 | 00:00:00 | 00:00:00 | |
| DL9RDZ-1 | 2026-09-04 12:46:23 | 64.02468 | -21.99802 | 17° | 16km/h | 27393m | 3.8m/s | -47.0°C | 0.7% | 0hPa | 0V | 00:00:00 | 00:00:00 | 00:00:00 | |
| DL9RDZ-1 | 2026-09-04 12:46:11 | 64.02381 | -21.99790 | 8° | 16km/h | 27320m | 5.3m/s | -47.6°C | 0.7% | 0hPa | 0V | 00:00:00 | 00:00:00 | 00:00:00 | |
| DL9RDZ-1 | 2026-09-04 12:44:02 | 64.02023 | -22.00464 | 76° | 29km/h | 26521m | 6.5m/s | -47.3°C | 0.7% | 0hPa | 0V | 00:00:00 | 00:00:00 | 00:00:00 | |
| DL9RDZ-1 | 2026-09-04 12:43:52 | 64.01975 | -22.00609 | 51° | 31km/h | 26450m | 6.0m/s | -47.4°C | 0.8% | 0hPa | 0V | 00:00:00 | 00:00:00 | 00:00:00 | |
| DL9RDZ-1 | 2026-09-04 12:43:33 | 64.01883 | -22.00884 | 47° | 35km/h | 26336m | 7.0m/s | -47.2°C | 0.7% | 0hPa | 0V | 00:00:00 | 00:00:00 | 00:00:00 | |
| DL9RDZ-1 | 2026-09-04 12:43:22 | 64.01814 | -22.01056 | 40° | 37km/h | 26267m | 5.5m/s | -47.1°C | 0.8% | 0hPa | 0V | 00:00:00 | 00:00:00 | 00:00:00 | |
| DL9RDZ-1 | 2026-09-04 12:43:10 | 64.01728 | -22.01234 | 53° | 37km/h | 26189m | 7.4m/s | -46.9°C | 0.7% | 0hPa | 0V | 00:00:00 | 00:00:00 | 00:00:00 | |
| DL9RDZ-1 | 2026-09-04 12:42:59 | 64.01654 | -22.01441 | 47° | 38km/h | 26113m | 7.3m/s | -46.7°C | 0.7% | 0hPa | 0V | 00:00:00 | 00:00:00 | 00:00:00 | |
| DL9RDZ-1 | 2026-09-04 12:42:26 | 64.01418 | -22.01794 | 31° | 33km/h | 25904m | 5.2m/s | -46.7°C | 0.7% | 0hPa | 0V | 00:00:00 | 00:00:00 | 00:00:00 | |
| DL9RDZ-1 | 2026-09-04 12:40:04 | 64.01051 | -22.02948 | 98° | 42km/h | 25025m | 6.5m/s | -47.0°C | 0.7% | 0hPa | 0V | 00:00:00 | 00:00:00 | 00:00:00 | |
| DL9RDZ-1 | 2026-09-04 12:39:53 | 64.01053 | -22.03165 | 81° | 42km/h | 24956m | 4.5m/s | -46.5°C | 0.7% | 0hPa | 0V | 00:00:00 | 00:00:00 | 00:00:00 | |
| DL9RDZ-1 | 2026-09-04 12:39:11 | 64.01026 | -22.03927 | 97° | 22km/h | 24697m | 7.1m/s | -46.6°C | 0.7% | 0hPa | 0V | 00:00:00 | 00:00:00 | 00:00:00 | |
| DL9RDZ-1 | 2026-09-04 12:38:59 | 64.01015 | -22.04135 | 82° | 40km/h | 24624m | 6.1m/s | -46.9°C | 0.7% | 0hPa | 0V | 00:00:00 | 00:00:00 | 00:00:00 | |
| DL9RDZ-1 | 2026-09-04 12:38:48 | 64.00988 | -22.04374 | 74° | 37km/h | 24560m | 6.6m/s | -46.8°C | 0.7% | 0hPa | 0V | 00:00:00 | 00:00:00 | 00:00:00 | |
| DL9RDZ-1 | 2026-09-04 12:38:37 | 64.00964 | -22.04589 | 74° | 24km/h | 24496m | 5.4m/s | -47.0°C | 0.8% | 0hPa | 0V | 00:00:00 | 00:00:00 | 00:00:00 | |
| DL9RDZ-1 | 2026-09-04 12:38:24 | 64.00934 | -22.04777 | 87° | 31km/h | 24419m | 4.8m/s | -47.0°C | 0.8% | 0hPa | 0V | 00:00:00 | 00:00:00 | 00:00:00 | |
| DL9RDZ-1 | 2026-09-04 12:37:56 | 64.00854 | -22.05206 | 51° | 29km/h | 24254m | 6.5m/s | -47.0°C | 0.8% | 0hPa | 0V | 00:00:00 | 00:00:00 | 00:00:00 | |
| DL9RDZ-1 | 2026-09-04 12:35:27 | 64.00329 | -22.07403 | 30° | 35km/h | 23349m | 5.0m/s | -47.7°C | 0.8% | 0hPa | 0V | 00:00:00 | 00:00:00 | 00:00:00 | |
| DL9RDZ-1 | 2026-09-04 12:35:16 | 64.00253 | -22.07547 | 45° | 29km/h | 23285m | 6.3m/s | -47.8°C | 0.8% | 0hPa | 0V | 00:00:00 | 00:00:00 | 00:00:00 | |
| DL9RDZ-1 | 2026-09-04 12:35:05 | 64.00196 | -22.07695 | 63° | 27km/h | 23220m | 6.6m/s | -47.9°C | 0.8% | 0hPa | 0V | 00:00:00 | 00:00:00 | 00:00:00 | |
| DL9RDZ-1 | 2026-09-04 12:33:35 | 63.99753 | -22.09473 | 45° | 40km/h | 22682m | 5.5m/s | -47.2°C | 0.8% | 0hPa | 0V | 00:00:00 | 00:00:00 | 00:00:00 | |
| DL9RDZ-1 | 2026-09-04 12:33:20 | 63.99655 | -22.09719 | 58° | 35km/h | 22593m | 4.8m/s | -47.4°C | 0.9% | 0hPa | 0V | 00:00:00 | 00:00:00 | 00:00:00 | |
| DL9RDZ-1 | 2026-09-04 12:33:09 | 63.99608 | -22.09920 | 79° | 38km/h | 22528m | 4.7m/s | -47.4°C | 0.9% | 0hPa | 0V | 00:00:00 | 00:00:00 | 00:00:00 | |
| DL9RDZ-1 | 2026-09-04 12:31:51 | 63.99267 | -22.11679 | 73° | 37km/h | 22057m | 5.7m/s | -47.4°C | 0.9% | 0hPa | 0V | 00:00:00 | 00:00:00 | 00:00:00 | |
| DL9RDZ-1 | 2026-09-04 12:31:40 | 63.99221 | -22.11898 | 59° | 37km/h | 21990m | 4.9m/s | -47.6°C | 0.9% | 0hPa | 0V | 00:00:00 | 00:00:00 | 00:00:00 | |
| DL9RDZ-1 | 2026-09-04 12:31:29 | 63.99171 | -22.12101 | 59° | 37km/h | 21925m | 4.8m/s | -47.5°C | 0.9% | 0hPa | 0V | 00:00:00 | 00:00:00 | 00:00:00 | |
| DL9RDZ-1 | 2026-09-04 12:31:18 | 63.99108 | -22.12309 | 53° | 35km/h | 21861m | 4.3m/s | -47.6°C | 0.9% | 0hPa | 0V | 00:00:00 | 00:00:00 | 00:00:00 | |
| DL9RDZ-1 | 2026-09-04 12:31:07 | 63.99032 | -22.12514 | 41° | 38km/h | 21797m | 5.0m/s | -47.7°C | 0.9% | 0hPa | 0V | 00:00:00 | 00:00:00 | 00:00:00 | |
| DL9RDZ-1 | 2026-09-04 12:30:39 | 63.98881 | -22.12969 | 68° | 27km/h | 21641m | 5.2m/s | -47.5°C | 0.9% | 0hPa | 0V | 00:00:00 | 00:00:00 | 00:00:00 | |
| DL9RDZ-1 | 2026-09-04 12:30:23 | 63.98849 | -22.13272 | 68° | 33km/h | 21553m | 4.5m/s | -47.5°C | 0.9% | 0hPa | 0V | 00:00:00 | 00:00:00 | 00:00:00 | |
| DL9RDZ-1 | 2026-09-04 12:29:10 | 63.98411 | -22.14867 | 54° | 51km/h | 21160m | 5.1m/s | -48.0°C | 0.9% | 0hPa | 0V | 00:00:00 | 00:00:00 | 00:00:00 | |
| DL9RDZ-1 | 2026-09-04 12:29:00 | 63.98323 | -22.15042 | 40° | 44km/h | 21104m | 5.8m/s | -47.9°C | 0.9% | 0hPa | 0V | 00:00:00 | 00:00:00 | 00:00:00 | |
| DL9RDZ-1 | 2026-09-04 12:28:49 | 63.98230 | -22.15218 | 42° | 37km/h | 21044m | 4.2m/s | -47.8°C | 0.9% | 0hPa | 0V | 00:00:00 | 00:00:00 | 00:00:00 | |
| DL9RDZ-1 | 2026-09-04 12:27:51 | 63.97891 | -22.16010 | 62° | 27km/h | 20734m | 4.9m/s | -47.2°C | 0.9% | 0hPa | 0V | 00:00:00 | 00:00:00 | 00:00:00 | |
| DL9RDZ-1 | 2026-09-04 12:27:40 | 63.97836 | -22.16157 | 45° | 35km/h | 20672m | 4.7m/s | -47.2°C | 0.9% | 0hPa | 0V | 00:00:00 | 00:00:00 | 00:00:00 | |
| DL9RDZ-1 | 2026-09-04 12:27:29 | 63.97784 | -22.16278 | 45° | 31km/h | 20610m | 5.8m/s | -47.5°C | 0.9% | 0hPa | 0V | 00:00:00 | 00:00:00 | 00:00:00 | |
| DL9RDZ-1 | 2026-09-04 12:27:18 | 63.97734 | -22.16410 | 65° | 27km/h | 20548m | 5.9m/s | -47.6°C | 0.9% | 0hPa | 0V | 00:00:00 | 00:00:00 | 00:00:00 | |
| DL9RDZ-1 | 2026-09-04 12:26:28 | 63.97565 | -22.17296 | 72° | 42km/h | 20259m | 5.8m/s | -47.4°C | 0.9% | 0hPa | 0V | 00:00:00 | 00:00:00 | 00:00:00 | |
| DL9RDZ-1 | 2026-09-04 12:26:19 | 63.97518 | -22.17503 | 53° | 35km/h | 20203m | 6.5m/s | -47.1°C | 0.9% | 0hPa | 0V | 00:00:00 | 00:00:00 | 00:00:00 | |
| DL9RDZ-1 | 2026-09-04 12:26:07 | 63.97454 | -22.17682 | 43° | 35km/h | 20137m | 5.3m/s | -47.2°C | 0.9% | 0hPa | 0V | 00:00:00 | 00:00:00 | 00:00:00 | |
| DL9RDZ-1 | 2026-09-04 12:25:56 | 63.97383 | -22.17847 | 39° | 40km/h | 20074m | 5.6m/s | -47.1°C | 0.9% | 0hPa | 0V | 00:00:00 | 00:00:00 | 00:00:00 | |
| DL9RDZ-1 | 2026-09-04 12:25:46 | 63.97310 | -22.17989 | 34° | 35km/h | 20016m | 4.7m/s | -47.2°C | 0.9% | 0hPa | 0V | 00:00:00 | 00:00:00 | 00:00:00 | |
| DL9RDZ-1 | 2026-09-04 12:25:35 | 63.97221 | -22.18138 | 36° | 42km/h | 19952m | 7.0m/s | -47.4°C | 0.9% | 0hPa | 0V | 00:00:00 | 00:00:00 | 00:00:00 | |
| DL9RDZ-1 | 2026-09-04 12:25:24 | 63.97148 | -22.18267 | 44° | 35km/h | 19888m | 6.3m/s | -47.2°C | 0.9% | 0hPa | 0V | 00:00:00 | 00:00:00 | 00:00:00 | |
| DL9RDZ-1 | 2026-09-04 12:25:13 | 63.97086 | -22.18393 | 45° | 29km/h | 19823m | 5.8m/s | -47.5°C | 0.9% | 0hPa | 0V | 00:00:00 | 00:00:00 | 00:00:00 | |
| DL9RDZ-1 | 2026-09-04 12:25:02 | 63.97041 | -22.18503 | 58° | 22km/h | 19762m | 4.7m/s | -47.6°C | 0.9% | 0hPa | 0V | 00:00:00 | 00:00:00 | 00:00:00 | |
| DL9RDZ-1 | 2026-09-04 12:24:51 | 63.97006 | -22.18619 | 62° | 22km/h | 19702m | 5.2m/s | -47.5°C | 1.0% | 0hPa | 0V | 00:00:00 | 00:00:00 | 00:00:00 | |
| DL9RDZ-1 | 2026-09-04 12:24:42 | 63.96992 | -22.18710 | 74° | 24km/h | 19645m | 4.8m/s | -47.2°C | 0.9% | 0hPa | 0V | 00:00:00 | 00:00:00 | 00:00:00 | |
| DL9RDZ-1 | 2026-09-04 12:24:31 | 63.96980 | -22.18831 | 79° | 24km/h | 19590m | 4.2m/s | -47.0°C | 0.9% | 0hPa | 0V | 00:00:00 | 00:00:00 | 00:00:00 | |
| DL9RDZ-1 | 2026-09-04 12:24:19 | 63.96968 | -22.19004 | 91° | 27km/h | 19523m | 3.8m/s | -47.1°C | 0.9% | 0hPa | 0V | 00:00:00 | 00:00:00 | 00:00:00 | |
| DL9RDZ-1 | 2026-09-04 12:24:10 | 63.96959 | -22.19202 | 81° | 35km/h | 19469m | 5.1m/s | -47.1°C | 0.9% | 0hPa | 0V | 00:00:00 | 00:00:00 | 00:00:00 | |
| DL9RDZ-1 | 2026-09-04 12:23:56 | 63.96931 | -22.19448 | 74° | 33km/h | 19397m | 6.3m/s | -46.9°C | 0.9% | 0hPa | 0V | 00:00:00 | 00:00:00 | 00:00:00 | |
| DL9RDZ-1 | 2026-09-04 12:23:45 | 63.96911 | -22.19629 | 86° | 29km/h | 19335m | 4.6m/s | -46.8°C | 0.9% | 0hPa | 0V | 00:00:00 | 00:00:00 | 00:00:00 | |
| DL9RDZ-1 | 2026-09-04 12:23:35 | 63.96881 | -22.19800 | 73° | 29km/h | 19283m | 4.0m/s | -46.7°C | 0.9% | 0hPa | 0V | 00:00:00 | 00:00:00 | 00:00:00 | |
| DL9RDZ-1 | 2026-09-04 12:22:53 | 63.96713 | -22.20573 | 71° | 35km/h | 19059m | 3.9m/s | -46.7°C | 0.9% | 0hPa | 0V | 00:00:00 | 00:00:00 | 00:00:00 | |
| DL9RDZ-1 | 2026-09-04 12:22:39 | 63.96652 | -22.20836 | 58° | 33km/h | 18982m | 3.7m/s | -46.3°C | 0.9% | 0hPa | 0V | 00:00:00 | 00:00:00 | 00:00:00 | |
| DL9RDZ-1 | 2026-09-04 12:22:28 | 63.96594 | -22.21018 | 63° | 35km/h | 18926m | 6.3m/s | -46.2°C | 0.9% | 0hPa | 0V | 00:00:00 | 00:00:00 | 00:00:00 | |
| DL9RDZ-1 | 2026-09-04 12:22:17 | 63.96557 | -22.21207 | 52° | 33km/h | 18867m | 5.3m/s | -46.3°C | 0.9% | 0hPa | 0V | 00:00:00 | 00:00:00 | 00:00:00 | |
| DL9RDZ-1 | 2026-09-04 12:22:07 | 63.96512 | -22.21349 | 62° | 27km/h | 18813m | 5.8m/s | -46.7°C | 0.9% | 0hPa | 0V | 00:00:00 | 00:00:00 | 00:00:00 | |
| DL9RDZ-1 | 2026-09-04 12:21:56 | 63.96471 | -22.21483 | 53° | 26km/h | 18756m | 4.6m/s | -47.2°C | 0.9% | 0hPa | 0V | 00:00:00 | 00:00:00 | 00:00:00 | |
| DL9RDZ-1 | 2026-09-04 12:21:45 | 63.96438 | -22.21641 | 56° | 31km/h | 18700m | 4.9m/s | -47.3°C | 1.0% | 0hPa | 0V | 00:00:00 | 00:00:00 | 00:00:00 | |
| DL9RDZ-1 | 2026-09-04 12:21:35 | 63.96414 | -22.21766 | 62° | 29km/h | 18647m | 4.6m/s | -47.4°C | 1.0% | 0hPa | 0V | 00:00:00 | 00:00:00 | 00:00:00 | |
| DL9RDZ-1 | 2026-09-04 12:21:24 | 63.96396 | -22.21902 | 89° | 24km/h | 18591m | 4.7m/s | -47.6°C | 1.0% | 0hPa | 0V | 00:00:00 | 00:00:00 | 00:00:00 | |
| DL9RDZ-1 | 2026-09-04 12:21:14 | 63.96393 | -22.22057 | 98° | 27km/h | 18539m | 5.3m/s | -47.5°C | 1.0% | 0hPa | 0V | 00:00:00 | 00:00:00 | 00:00:00 | |
| DL9RDZ-1 | 2026-09-04 12:21:04 | 63.96382 | -22.22235 | 82° | 33km/h | 18487m | 5.9m/s | -47.4°C | 1.0% | 0hPa | 0V | 00:00:00 | 00:00:00 | 00:00:00 | |
| DL9RDZ-1 | 2026-09-04 12:20:34 | 63.96308 | -22.22767 | 66° | 35km/h | 18324m | 4.7m/s | -47.3°C | 0.9% | 0hPa | 0V | 00:00:00 | 00:00:00 | 00:00:00 | |
| DL9RDZ-1 | 2026-09-04 12:20:23 | 63.96273 | -22.22916 | 62° | 31km/h | 18270m | 5.6m/s | -47.5°C | 1.0% | 0hPa | 0V | 00:00:00 | 00:00:00 | 00:00:00 | |
| DL9RDZ-1 | 2026-09-04 12:20:12 | 63.96239 | -22.23082 | 72° | 27km/h | 18209m | 4.3m/s | -47.5°C | 1.0% | 0hPa | 0V | 00:00:00 | 00:00:00 | 00:00:00 | |
| DL9RDZ-1 | 2026-09-04 12:20:01 | 63.96207 | -22.23236 | 53° | 26km/h | 18150m | 4.3m/s | -47.6°C | 1.0% | 0hPa | 0V | 00:00:00 | 00:00:00 | 00:00:00 | |
| DL9RDZ-1 | 2026-09-04 12:19:50 | 63.96174 | -22.23358 | 57° | 27km/h | 18093m | 4.5m/s | -47.5°C | 1.0% | 0hPa | 0V | 00:00:00 | 00:00:00 | 00:00:00 | |
| DL9RDZ-1 | 2026-09-04 12:19:39 | 63.96143 | -22.23479 | 59° | 22km/h | 18037m | 4.8m/s | -47.3°C | 1.0% | 0hPa | 0V | 00:00:00 | 00:00:00 | 00:00:00 | |
| DL9RDZ-1 | 2026-09-04 12:19:29 | 63.96116 | -22.23578 | 49° | 16km/h | 17981m | 4.3m/s | -47.2°C | 1.0% | 0hPa | 0V | 00:00:00 | 00:00:00 | 00:00:00 | |
| DL9RDZ-1 | 2026-09-04 12:19:15 | 63.96079 | -22.23697 | 56° | 16km/h | 17912m | 3.6m/s | -46.7°C | 1.0% | 0hPa | 0V | 00:00:00 | 00:00:00 | 00:00:00 | |
| DL9RDZ-1 | 2026-09-04 12:19:04 | 63.96052 | -22.23796 | 35° | 16km/h | 17853m | 5.7m/s | -46.4°C | 1.0% | 0hPa | 0V | 00:00:00 | 00:00:00 | 00:00:00 | |
| DL9RDZ-1 | 2026-09-04 12:18:50 | 63.96029 | -22.23919 | 76° | 11km/h | 17782m | 4.3m/s | -46.2°C | 0.9% | 0hPa | 0V | 00:00:00 | 00:00:00 | 00:00:00 | |
| DL9RDZ-1 | 2026-09-04 12:18:39 | 63.96019 | -22.23999 | 85° | 20km/h | 17723m | 6.0m/s | -46.1°C | 1.0% | 0hPa | 0V | 00:00:00 | 00:00:00 | 00:00:00 | |
| DL9RDZ-1 | 2026-09-04 12:18:28 | 63.96033 | -22.24086 | 94° | 16km/h | 17666m | 4.6m/s | -46.4°C | 1.0% | 0hPa | 0V | 00:00:00 | 00:00:00 | 00:00:00 | |
| DL9RDZ-1 | 2026-09-04 12:18:17 | 63.96043 | -22.24216 | 102° | 20km/h | 17608m | 5.3m/s | -46.7°C | 1.0% | 0hPa | 0V | 00:00:00 | 00:00:00 | 00:00:00 | |
| DL9RDZ-1 | 2026-09-04 12:18:07 | 63.96049 | -22.24319 | 110° | 26km/h | 17556m | 6.1m/s | -46.6°C | 1.0% | 0hPa | 0V | 00:00:00 | 00:00:00 | 00:00:00 | |
| DL9RDZ-1 | 2026-09-04 12:17:57 | 63.96060 | -22.24434 | 97° | 16km/h | 17499m | 5.8m/s | -46.8°C | 1.0% | 0hPa | 0V | 00:00:00 | 00:00:00 | 00:00:00 | |
| DL9RDZ-1 | 2026-09-04 12:17:46 | 63.96069 | -22.24519 | 122° | 15km/h | 17442m | 4.7m/s | -46.4°C | 1.0% | 0hPa | 0V | 00:00:00 | 00:00:00 | 00:00:00 | |
| DL9RDZ-1 | 2026-09-04 12:17:35 | 63.96083 | -22.24623 | 120° | 24km/h | 17388m | 4.2m/s | -46.3°C | 0.9% | 0hPa | 0V | 00:00:00 | 00:00:00 | 00:00:00 | |
| DL9RDZ-1 | 2026-09-04 12:17:25 | 63.96100 | -22.24754 | 99° | 24km/h | 17337m | 4.5m/s | -46.3°C | 1.0% | 0hPa | 0V | 00:00:00 | 00:00:00 | 00:00:00 | |
| DL9RDZ-1 | 2026-09-04 12:17:15 | 63.96112 | -22.24910 | 99° | 31km/h | 17286m | 6.0m/s | -46.1°C | 1.0% | 0hPa | 0V | 00:00:00 | 00:00:00 | 00:00:00 | |
| DL9RDZ-1 | 2026-09-04 12:17:02 | 63.96110 | -22.25142 | 85° | 31km/h | 17218m | 6.0m/s | -46.0°C | 0.9% | 0hPa | 0V | 00:00:00 | 00:00:00 | 00:00:00 | |
| DL9RDZ-1 | 2026-09-04 12:16:43 | 63.96085 | -22.25562 | 77° | 46km/h | 17123m | 5.9m/s | -46.2°C | 0.9% | 0hPa | 0V | 00:00:00 | 00:00:00 | 00:00:00 | |
| DL9RDZ-1 | 2026-09-04 12:16:30 | 63.96054 | -22.25853 | 72° | 42km/h | 17056m | 4.6m/s | -46.0°C | 1.0% | 0hPa | 0V | 00:00:00 | 00:00:00 | 00:00:00 | |
| DL9RDZ-1 | 2026-09-04 12:16:19 | 63.96026 | -22.26070 | 75° | 38km/h | 17001m | 3.5m/s | -46.2°C | 1.0% | 0hPa | 0V | 00:00:00 | 00:00:00 | 00:00:00 | |
| DL9RDZ-1 | 2026-09-04 12:16:08 | 63.95997 | -22.26274 | 73° | 31km/h | 16945m | 4.2m/s | -46.3°C | 1.0% | 0hPa | 0V | 00:00:00 | 00:00:00 | 00:00:00 | |
| DL9RDZ-1 | 2026-09-04 12:15:57 | 63.95959 | -22.26453 | 72° | 37km/h | 16890m | 3.8m/s | -46.6°C | 1.0% | 0hPa | 0V | 00:00:00 | 00:00:00 | 00:00:00 | |
| DL9RDZ-1 | 2026-09-04 12:15:46 | 63.95918 | -22.26646 | 67° | 33km/h | 16838m | 5.6m/s | -46.8°C | 1.0% | 0hPa | 0V | 00:00:00 | 00:00:00 | 00:00:00 | |
| DL9RDZ-1 | 2026-09-04 12:15:35 | 63.95879 | -22.26800 | 63° | 27km/h | 16780m | 5.8m/s | -47.0°C | 1.0% | 0hPa | 0V | 00:00:00 | 00:00:00 | 00:00:00 | |
| DL9RDZ-1 | 2026-09-04 12:15:24 | 63.95839 | -22.26963 | 63° | 29km/h | 16722m | 5.1m/s | -47.0°C | 1.0% | 0hPa | 0V | 00:00:00 | 00:00:00 | 00:00:00 | |
| DL9RDZ-1 | 2026-09-04 12:14:20 | 63.95795 | -22.27769 | 92° | 37km/h | 16384m | 5.2m/s | -46.4°C | 1.0% | 0hPa | 0V | 00:00:00 | 00:00:00 | 00:00:00 | |
| DL9RDZ-1 | 2026-09-04 12:14:00 | 63.95782 | -22.28180 | 92° | 40km/h | 16277m | 6.2m/s | -46.5°C | 1.0% | 0hPa | 0V | 00:00:00 | 00:00:00 | 00:00:00 | |
| DL9RDZ-1 | 2026-09-04 12:13:49 | 63.95770 | -22.28436 | 79° | 42km/h | 16217m | 5.5m/s | -46.5°C | 1.0% | 0hPa | 0V | 00:00:00 | 00:00:00 | 00:00:00 | |
| DL9RDZ-1 | 2026-09-04 12:13:38 | 63.95732 | -22.28679 | 64° | 40km/h | 16158m | 5.1m/s | -46.5°C | 1.0% | 0hPa | 0V | 00:00:00 | 00:00:00 | 00:00:00 | |
| DL9RDZ-1 | 2026-09-04 12:13:28 | 63.95684 | -22.28897 | 58° | 33km/h | 16100m | 6.0m/s | -46.3°C | 1.0% | 0hPa | 0V | 00:00:00 | 00:00:00 | 00:00:00 | |
| DL9RDZ-1 | 2026-09-04 12:13:17 | 63.95637 | -22.29079 | 66° | 33km/h | 16048m | 4.5m/s | -46.3°C | 1.0% | 0hPa | 0V | 00:00:00 | 00:00:00 | 00:00:00 | |
| DL9RDZ-1 | 2026-09-04 12:13:06 | 63.95596 | -22.29253 | 62° | 37km/h | 15993m | 4.1m/s | -46.3°C | 1.0% | 0hPa | 0V | 00:00:00 | 00:00:00 | 00:00:00 | |
| DL9RDZ-1 | 2026-09-04 12:12:56 | 63.95556 | -22.29425 | 60° | 35km/h | 15943m | 6.0m/s | -46.3°C | 1.0% | 0hPa | 0V | 00:00:00 | 00:00:00 | 00:00:00 | |
| DL9RDZ-1 | 2026-09-04 12:12:45 | 63.95518 | -22.29614 | 61° | 35km/h | 15889m | 5.5m/s | -46.1°C | 1.1% | 0hPa | 0V | 00:00:00 | 00:00:00 | 00:00:00 | |
| DL9RDZ-1 | 2026-09-04 12:11:33 | 63.95274 | -22.30946 | 72° | 38km/h | 15546m | 4.4m/s | -47.1°C | 1.1% | 0hPa | 0V | 00:00:00 | 00:00:00 | 00:00:00 | |
| DL9RDZ-1 | 2026-09-04 12:11:22 | 63.95250 | -22.31149 | 86° | 40km/h | 15492m | 4.9m/s | -47.2°C | 1.1% | 0hPa | 0V | 00:00:00 | 00:00:00 | 00:00:00 | |
| DL9RDZ-1 | 2026-09-04 12:11:12 | 63.95232 | -22.31310 | 68° | 27km/h | 15441m | 3.8m/s | -47.4°C | 1.1% | 0hPa | 0V | 00:00:00 | 00:00:00 | 00:00:00 | |
| DL9RDZ-1 | 2026-09-04 12:11:01 | 63.95223 | -22.31492 | 80° | 33km/h | 15388m | 5.4m/s | -47.5°C | 1.2% | 0hPa | 0V | 00:00:00 | 00:00:00 | 00:00:00 | |
| DL9RDZ-1 | 2026-09-04 12:10:51 | 63.95205 | -22.31697 | 75° | 37km/h | 15334m | 5.3m/s | -47.6°C | 1.2% | 0hPa | 0V | 00:00:00 | 00:00:00 | 00:00:00 | |
| DL9RDZ-1 | 2026-09-04 12:10:40 | 63.95181 | -22.31899 | 78° | 37km/h | 15284m | 4.5m/s | -47.6°C | 1.2% | 0hPa | 0V | 00:00:00 | 00:00:00 | 00:00:00 | |
| DL9RDZ-1 | 2026-09-04 12:10:29 | 63.95157 | -22.32110 | 78° | 35km/h | 15230m | 4.7m/s | -47.8°C | 1.2% | 0hPa | 0V | 00:00:00 | 00:00:00 | 00:00:00 | |
| DL9RDZ-1 | 2026-09-04 12:10:19 | 63.95149 | -22.32301 | 92° | 33km/h | 15180m | 4.5m/s | -47.8°C | 1.2% | 0hPa | 0V | 00:00:00 | 00:00:00 | 00:00:00 | |
| DL9RDZ-1 | 2026-09-04 12:10:08 | 63.95144 | -22.32518 | 79° | 37km/h | 15123m | 5.9m/s | -47.4°C | 1.2% | 0hPa | 0V | 00:00:00 | 00:00:00 | 00:00:00 | |
| DL9RDZ-1 | 2026-09-04 12:09:53 | 63.95117 | -22.32817 | 74° | 33km/h | 15046m | 4.2m/s | -46.9°C | 1.2% | 0hPa | 0V | 00:00:00 | 00:00:00 | 00:00:00 | |
| DL9RDZ-1 | 2026-09-04 12:09:41 | 63.95086 | -22.33031 | 74° | 29km/h | 14986m | 5.7m/s | -46.6°C | 1.1% | 0hPa | 0V | 00:00:00 | 00:00:00 | 00:00:00 | |
| DL9RDZ-1 | 2026-09-04 12:09:31 | 63.95060 | -22.33193 | 60° | 26km/h | 14936m | 5.2m/s | -46.2°C | 1.1% | 0hPa | 0V | 00:00:00 | 00:00:00 | 00:00:00 | |
| DL9RDZ-1 | 2026-09-04 12:09:21 | 63.95038 | -22.33324 | 75° | 27km/h | 14884m | 4.8m/s | -46.1°C | 1.1% | 0hPa | 0V | 00:00:00 | 00:00:00 | 00:00:00 | |
| DL9RDZ-1 | 2026-09-04 12:09:10 | 63.95019 | -22.33464 | 76° | 22km/h | 14829m | 5.2m/s | -46.8°C | 1.2% | 0hPa | 0V | 00:00:00 | 00:00:00 | 00:00:00 | |
| DL9RDZ-1 | 2026-09-04 12:09:00 | 63.95004 | -22.33574 | 81° | 20km/h | 14778m | 4.8m/s | -46.9°C | 1.2% | 0hPa | 0V | 00:00:00 | 00:00:00 | 00:00:00 | |
| DL9RDZ-1 | 2026-09-04 12:08:39 | 63.95003 | -22.33890 | 92° | 35km/h | 14673m | 4.0m/s | -46.5°C | 1.2% | 0hPa | 0V | 00:00:00 | 00:00:00 | 00:00:00 | |
| DL9RDZ-1 | 2026-09-04 12:08:29 | 63.95005 | -22.34072 | 99° | 37km/h | 14623m | 5.7m/s | -46.5°C | 1.1% | 0hPa | 0V | 00:00:00 | 00:00:00 | 00:00:00 | |
| DL9RDZ-1 | 2026-09-04 12:08:18 | 63.95010 | -22.34320 | 88° | 40km/h | 14566m | 3.9m/s | -46.4°C | 1.2% | 0hPa | 0V | 00:00:00 | 00:00:00 | 00:00:00 | |
| DL9RDZ-1 | 2026-09-04 12:08:02 | 63.94991 | -22.34729 | 80° | 51km/h | 14487m | 5.0m/s | -46.3°C | 1.2% | 0hPa | 0V | 00:00:00 | 00:00:00 | 00:00:00 | |
| DL9RDZ-1 | 2026-09-04 12:07:52 | 63.94969 | -22.35034 | 86° | 40km/h | 14431m | 3.8m/s | -45.9°C | 1.2% | 0hPa | 0V | 00:00:00 | 00:00:00 | 00:00:00 | |
| DL9RDZ-1 | 2026-09-04 12:07:33 | 63.94927 | -22.35482 | 76° | 42km/h | 14345m | 4.5m/s | -45.5°C | 1.1% | 0hPa | 0V | 00:00:00 | 00:00:00 | 00:00:00 | |
| DL9RDZ-1 | 2026-09-04 12:07:22 | 63.94900 | -22.35747 | 73° | 46km/h | 14294m | 4.1m/s | -45.5°C | 1.1% | 0hPa | 0V | 00:00:00 | 00:00:00 | 00:00:00 | |
| DL9RDZ-1 | 2026-09-04 12:07:12 | 63.94859 | -22.35976 | 71° | 40km/h | 14245m | 4.7m/s | -45.4°C | 1.1% | 0hPa | 0V | 00:00:00 | 00:00:00 | 00:00:00 | |
| DL9RDZ-1 | 2026-09-04 12:07:02 | 63.94827 | -22.36192 | 72° | 42km/h | 14199m | 4.8m/s | -45.5°C | 1.1% | 0hPa | 0V | 00:00:00 | 00:00:00 | 00:00:00 | |
| DL9RDZ-1 | 2026-09-04 12:06:52 | 63.94801 | -22.36404 | 74° | 37km/h | 14152m | 4.5m/s | -45.5°C | 1.1% | 0hPa | 0V | 00:00:00 | 00:00:00 | 00:00:00 | |
| DL9RDZ-1 | 2026-09-04 12:06:42 | 63.94774 | -22.36579 | 72° | 29km/h | 14103m | 4.6m/s | -46.1°C | 1.2% | 0hPa | 0V | 00:00:00 | 00:00:00 | 00:00:00 | |
| DL9RDZ-1 | 2026-09-04 12:06:31 | 63.94744 | -22.36778 | 63° | 35km/h | 14050m | 4.3m/s | -46.0°C | 1.2% | 0hPa | 0V | 00:00:00 | 00:00:00 | 00:00:00 | |
| DL9RDZ-1 | 2026-09-04 12:06:20 | 63.94711 | -22.36962 | 75° | 31km/h | 13996m | 5.5m/s | -45.6°C | 1.2% | 0hPa | 0V | 00:00:00 | 00:00:00 | 00:00:00 | |
| DL9RDZ-1 | 2026-09-04 12:06:10 | 63.94688 | -22.37112 | 79° | 29km/h | 13947m | 4.7m/s | -45.6°C | 1.2% | 0hPa | 0V | 00:00:00 | 00:00:00 | 00:00:00 | |
| DL9RDZ-1 | 2026-09-04 12:05:59 | 63.94684 | -22.37274 | 102° | 26km/h | 13892m | 5.6m/s | -45.8°C | 1.2% | 0hPa | 0V | 00:00:00 | 00:00:00 | 00:00:00 | |
| DL9RDZ-1 | 2026-09-04 12:05:49 | 63.94677 | -22.37426 | 82° | 26km/h | 13843m | 5.1m/s | -45.5°C | 1.2% | 0hPa | 0V | 00:00:00 | 00:00:00 | 00:00:00 | |
| DL9RDZ-1 | 2026-09-04 12:05:38 | 63.94655 | -22.37592 | 72° | 31km/h | 13789m | 5.3m/s | -45.5°C | 1.2% | 0hPa | 0V | 00:00:00 | 00:00:00 | 00:00:00 | |
| DL9RDZ-1 | 2026-09-04 12:05:27 | 63.94613 | -22.37776 | 62° | 31km/h | 13736m | 5.0m/s | -45.5°C | 1.2% | 0hPa | 0V | 00:00:00 | 00:00:00 | 00:00:00 | |
| DL9RDZ-1 | 2026-09-04 12:05:16 | 63.94586 | -22.37956 | 75° | 33km/h | 13686m | 3.6m/s | -45.4°C | 1.2% | 0hPa | 0V | 00:00:00 | 00:00:00 | 00:00:00 | |
| DL9RDZ-1 | 2026-09-04 12:04:59 | 63.94551 | -22.38285 | 74° | 35km/h | 13603m | 5.0m/s | -45.1°C | 1.2% | 0hPa | 0V | 00:00:00 | 00:00:00 | 00:00:00 | |
| DL9RDZ-1 | 2026-09-04 12:04:49 | 63.94526 | -22.38456 | 73° | 37km/h | 13551m | 4.6m/s | -45.1°C | 1.2% | 0hPa | 0V | 00:00:00 | 00:00:00 | 00:00:00 | |
| DL9RDZ-1 | 2026-09-04 12:04:38 | 63.94485 | -22.38665 | 68° | 33km/h | 13498m | 4.9m/s | -44.9°C | 1.2% | 0hPa | 0V | 00:00:00 | 00:00:00 | 00:00:00 | |
| DL9RDZ-1 | 2026-09-04 12:04:28 | 63.94452 | -22.38830 | 67° | 27km/h | 13447m | 5.7m/s | -44.8°C | 1.2% | 0hPa | 0V | 00:00:00 | 00:00:00 | 00:00:00 | |
| DL9RDZ-1 | 2026-09-04 12:04:17 | 63.94418 | -22.38962 | 52° | 24km/h | 13395m | 5.0m/s | -44.7°C | 1.2% | 0hPa | 0V | 00:00:00 | 00:00:00 | 00:00:00 | |
| DL9RDZ-1 | 2026-09-04 12:04:06 | 63.94387 | -22.39106 | 75° | 24km/h | 13342m | 4.2m/s | -45.0°C | 1.2% | 0hPa | 0V | 00:00:00 | 00:00:00 | 00:00:00 | |
| DL9RDZ-1 | 2026-09-04 12:03:56 | 63.94368 | -22.39260 | 82° | 31km/h | 13291m | 4.2m/s | -45.2°C | 1.3% | 0hPa | 0V | 00:00:00 | 00:00:00 | 00:00:00 | |
| DL9RDZ-1 | 2026-09-04 12:03:45 | 63.94354 | -22.39436 | 80° | 27km/h | 13238m | 4.1m/s | -45.0°C | 1.2% | 0hPa | 0V | 00:00:00 | 00:00:00 | 00:00:00 | |
| DL9RDZ-1 | 2026-09-04 12:03:35 | 63.94340 | -22.39575 | 79° | 22km/h | 13191m | 3.2m/s | -44.8°C | 1.2% | 0hPa | 0V | 00:00:00 | 00:00:00 | 00:00:00 | |
| DL9RDZ-1 | 2026-09-04 12:03:24 | 63.94334 | -22.39724 | 88° | 24km/h | 13141m | 4.3m/s | -44.6°C | 1.3% | 0hPa | 0V | 00:00:00 | 00:00:00 | 00:00:00 | |
| DL9RDZ-1 | 2026-09-04 12:03:14 | 63.94334 | -22.39880 | 89° | 31km/h | 13095m | 4.6m/s | -44.7°C | 1.3% | 0hPa | 0V | 00:00:00 | 00:00:00 | 00:00:00 | |
| DL9RDZ-1 | 2026-09-04 12:03:03 | 63.94321 | -22.40051 | 89° | 26km/h | 13045m | 3.3m/s | -44.8°C | 1.3% | 0hPa | 0V | 00:00:00 | 00:00:00 | 00:00:00 | |
| DL9RDZ-1 | 2026-09-04 12:02:53 | 63.94328 | -22.40248 | 88° | 35km/h | 13001m | 4.0m/s | -44.9°C | 1.3% | 0hPa | 0V | 00:00:00 | 00:00:00 | 00:00:00 | |
| DL9RDZ-1 | 2026-09-04 12:02:42 | 63.94324 | -22.40452 | 93° | 31km/h | 12952m | 4.6m/s | -44.7°C | 1.3% | 0hPa | 0V | 00:00:00 | 00:00:00 | 00:00:00 | |
| DL9RDZ-1 | 2026-09-04 12:02:32 | 63.94325 | -22.40652 | 83° | 37km/h | 12905m | 4.2m/s | -44.9°C | 1.3% | 0hPa | 0V | 00:00:00 | 00:00:00 | 00:00:00 | |
| DL9RDZ-1 | 2026-09-04 12:02:21 | 63.94323 | -22.40898 | 90° | 37km/h | 12859m | 4.4m/s | -44.9°C | 1.3% | 0hPa | 0V | 00:00:00 | 00:00:00 | 00:00:00 | |
| DL9RDZ-1 | 2026-09-04 12:02:11 | 63.94312 | -22.41097 | 84° | 35km/h | 12813m | 5.2m/s | -44.6°C | 1.3% | 0hPa | 0V | 00:00:00 | 00:00:00 | 00:00:00 | |
| DL9RDZ-1 | 2026-09-04 12:02:01 | 63.94305 | -22.41319 | 84° | 42km/h | 12769m | 5.5m/s | -44.8°C | 1.3% | 0hPa | 0V | 00:00:00 | 00:00:00 | 00:00:00 | |
| DL9RDZ-1 | 2026-09-04 12:01:50 | 63.94293 | -22.41612 | 85° | 47km/h | 12717m | 4.5m/s | -45.0°C | 1.3% | 0hPa | 0V | 00:00:00 | 00:00:00 | 00:00:00 | |
| DL9RDZ-1 | 2026-09-04 12:01:39 | 63.94280 | -22.41884 | 83° | 47km/h | 12668m | 4.6m/s | -44.8°C | 1.4% | 0hPa | 0V | 00:00:00 | 00:00:00 | 00:00:00 | |
| DL9RDZ-1 | 2026-09-04 12:01:28 | 63.94263 | -22.42114 | 82° | 38km/h | 12621m | 3.7m/s | -44.7°C | 1.3% | 0hPa | 0V | 00:00:00 | 00:00:00 | 00:00:00 | |
| DL9RDZ-1 | 2026-09-04 12:01:17 | 63.94238 | -22.42356 | 75° | 38km/h | 12572m | 3.6m/s | -44.9°C | 1.3% | 0hPa | 0V | 00:00:00 | 00:00:00 | 00:00:00 | |
| DL9RDZ-1 | 2026-09-04 12:01:07 | 63.94218 | -22.42549 | 71° | 31km/h | 12526m | 5.2m/s | -45.1°C | 1.4% | 0hPa | 0V | 00:00:00 | 00:00:00 | 00:00:00 | |
| DL9RDZ-1 | 2026-09-04 12:00:56 | 63.94198 | -22.42768 | 74° | 35km/h | 12476m | 4.0m/s | -45.4°C | 1.4% | 0hPa | 0V | 00:00:00 | 00:00:00 | 00:00:00 | |
| DL9RDZ-1 | 2026-09-04 12:00:46 | 63.94181 | -22.42951 | 83° | 31km/h | 12428m | 5.9m/s | -45.3°C | 1.4% | 0hPa | 0V | 00:00:00 | 00:00:00 | 00:00:00 | |
| DL9RDZ-1 | 2026-09-04 12:00:35 | 63.94167 | -22.43116 | 78° | 26km/h | 12378m | 4.5m/s | -45.2°C | 1.4% | 0hPa | 0V | 00:00:00 | 00:00:00 | 00:00:00 | |
| DL9RDZ-1 | 2026-09-04 12:00:24 | 63.94153 | -22.43276 | 74° | 29km/h | 12328m | 5.4m/s | -45.2°C | 1.4% | 0hPa | 0V | 00:00:00 | 00:00:00 | 00:00:00 | |
| DL9RDZ-1 | 2026-09-04 12:00:13 | 63.94132 | -22.43467 | 86° | 33km/h | 12275m | 3.8m/s | -45.1°C | 1.4% | 0hPa | 0V | 00:00:00 | 00:00:00 | 00:00:00 | |
| DL9RDZ-1 | 2026-09-04 12:00:03 | 63.94115 | -22.43664 | 80° | 37km/h | 12229m | 5.5m/s | -45.4°C | 1.4% | 0hPa | 0V | 00:00:00 | 00:00:00 | 00:00:00 | |
| DL9RDZ-1 | 2026-09-04 11:59:53 | 63.94095 | -22.43870 | 72° | 37km/h | 12183m | 5.3m/s | -45.4°C | 1.4% | 0hPa | 0V | 00:00:00 | 00:00:00 | 00:00:00 | |
| DL9RDZ-1 | 2026-09-04 11:59:42 | 63.94072 | -22.44086 | 75° | 33km/h | 12134m | 3.9m/s | -45.5°C | 1.4% | 0hPa | 0V | 00:00:00 | 00:00:00 | 00:00:00 | |
| DL9RDZ-1 | 2026-09-04 11:59:32 | 63.94050 | -22.44269 | 78° | 29km/h | 12089m | 5.3m/s | -45.4°C | 1.5% | 0hPa | 0V | 00:00:00 | 00:00:00 | 00:00:00 | |
| DL9RDZ-1 | 2026-09-04 11:59:21 | 63.94040 | -22.44441 | 79° | 26km/h | 12037m | 3.9m/s | -45.5°C | 1.5% | 0hPa | 0V | 00:00:00 | 00:00:00 | 00:00:00 | |
| DL9RDZ-1 | 2026-09-04 11:59:10 | 63.94022 | -22.44593 | 78° | 29km/h | 11986m | 5.6m/s | -45.3°C | 1.5% | 0hPa | 0V | 00:00:00 | 00:00:00 | 00:00:00 | |
| DL9RDZ-1 | 2026-09-04 11:58:59 | 63.94007 | -22.44767 | 74° | 31km/h | 11933m | 4.3m/s | -45.3°C | 1.6% | 0hPa | 0V | 00:00:00 | 00:00:00 | 00:00:00 | |
| DL9RDZ-1 | 2026-09-04 11:58:49 | 63.93975 | -22.44963 | 70° | 31km/h | 11884m | 3.9m/s | -45.4°C | 1.6% | 0hPa | 0V | 00:00:00 | 00:00:00 | 00:00:00 | |
| DL9RDZ-1 | 2026-09-04 11:58:37 | 63.93948 | -22.45147 | 73° | 35km/h | 11835m | 3.9m/s | -45.4°C | 1.6% | 0hPa | 0V | 00:00:00 | 00:00:00 | 00:00:00 | |
| DL9RDZ-1 | 2026-09-04 11:58:27 | 63.93919 | -22.45325 | 74° | 29km/h | 11792m | 4.5m/s | -45.2°C | 1.7% | 0hPa | 0V | 00:00:00 | 00:00:00 | 00:00:00 | |
| DL9RDZ-1 | 2026-09-04 11:58:16 | 63.93900 | -22.45511 | 79° | 31km/h | 11742m | 4.3m/s | -45.3°C | 1.7% | 0hPa | 0V | 00:00:00 | 00:00:00 | 00:00:00 | |
| DL9RDZ-1 | 2026-09-04 11:58:05 | 63.93888 | -22.45681 | 94° | 26km/h | 11695m | 4.5m/s | -45.2°C | 1.8% | 0hPa | 0V | 00:00:00 | 00:00:00 | 00:00:00 | |
| DL9RDZ-1 | 2026-09-04 11:57:55 | 63.93888 | -22.45789 | 110° | 15km/h | 11653m | 5.2m/s | -45.2°C | 1.8% | 0hPa | 0V | 00:00:00 | 00:00:00 | 00:00:00 | |
| DL9RDZ-1 | 2026-09-04 11:57:44 | 63.93901 | -22.45901 | 99° | 18km/h | 11602m | 4.1m/s | -45.1°C | 1.8% | 0hPa | 0V | 00:00:00 | 00:00:00 | 00:00:00 | |
| DL9RDZ-1 | 2026-09-04 11:57:34 | 63.93908 | -22.45997 | 106° | 20km/h | 11557m | 4.3m/s | -45.5°C | 1.9% | 0hPa | 0V | 00:00:00 | 00:00:00 | 00:00:00 | |
| DL9RDZ-1 | 2026-09-04 11:57:23 | 63.93916 | -22.46133 | 99° | 29km/h | 11508m | 4.0m/s | -45.6°C | 1.9% | 0hPa | 0V | 00:00:00 | 00:00:00 | 00:00:00 | |
| DL9RDZ-1 | 2026-09-04 11:57:13 | 63.93928 | -22.46289 | 98° | 26km/h | 11464m | 4.7m/s | -45.4°C | 1.9% | 0hPa | 0V | 00:00:00 | 00:00:00 | 00:00:00 | |
| DL9RDZ-1 | 2026-09-04 11:57:02 | 63.93924 | -22.46462 | 90° | 31km/h | 11418m | 4.5m/s | -45.3°C | 1.9% | 0hPa | 0V | 00:00:00 | 00:00:00 | 00:00:00 | |
| DL9RDZ-1 | 2026-09-04 11:56:51 | 63.93908 | -22.46647 | 84° | 31km/h | 11368m | 3.9m/s | -45.6°C | 1.9% | 0hPa | 0V | 00:00:00 | 00:00:00 | 00:00:00 | |
| DL9RDZ-1 | 2026-09-04 11:56:41 | 63.93893 | -22.46836 | 84° | 31km/h | 11325m | 3.8m/s | -45.5°C | 1.9% | 0hPa | 0V | 00:00:00 | 00:00:00 | 00:00:00 | |
| DL9RDZ-1 | 2026-09-04 11:56:30 | 63.93876 | -22.47033 | 73° | 37km/h | 11276m | 4.7m/s | -45.9°C | 2.0% | 0hPa | 0V | 00:00:00 | 00:00:00 | 00:00:00 | |
| DL9RDZ-1 | 2026-09-04 11:56:20 | 63.93845 | -22.47215 | 82° | 33km/h | 11231m | 4.2m/s | -46.2°C | 2.0% | 0hPa | 0V | 00:00:00 | 00:00:00 | 00:00:00 | |
| DL9RDZ-1 | 2026-09-04 11:56:09 | 63.93828 | -22.47405 | 83° | 26km/h | 11183m | 4.2m/s | -46.3°C | 2.1% | 0hPa | 0V | 00:00:00 | 00:00:00 | 00:00:00 | |
| DL9RDZ-1 | 2026-09-04 11:55:58 | 63.93817 | -22.47569 | 84° | 24km/h | 11135m | 4.2m/s | -46.8°C | 2.2% | 0hPa | 0V | 00:00:00 | 00:00:00 | 00:00:00 | |
| DL9RDZ-1 | 2026-09-04 11:55:40 | 63.93818 | -22.47875 | 81° | 27km/h | 11051m | 3.8m/s | -46.8°C | 2.3% | 0hPa | 0V | 00:00:00 | 00:00:00 | 00:00:00 | |
| DL9RDZ-1 | 2026-09-04 11:55:28 | 63.93794 | -22.48045 | 71° | 29km/h | 11004m | 3.3m/s | -46.9°C | 2.6% | 0hPa | 0V | 00:00:00 | 00:00:00 | 00:00:00 | |
| DL9RDZ-1 | 2026-09-04 11:55:17 | 63.93781 | -22.48201 | 88° | 27km/h | 10956m | 3.4m/s | -47.2°C | 2.9% | 0hPa | 0V | 00:00:00 | 00:00:00 | 00:00:00 | |
| DL9RDZ-1 | 2026-09-04 11:55:07 | 63.93782 | -22.48353 | 103° | 22km/h | 10915m | 4.2m/s | -47.3°C | 3.0% | 0hPa | 0V | 00:00:00 | 00:00:00 | 00:00:00 | |
| DL9RDZ-1 | 2026-09-04 11:54:57 | 63.93792 | -22.48509 | 98° | 31km/h | 10873m | 4.3m/s | -47.8°C | 3.4% | 0hPa | 0V | 00:00:00 | 00:00:00 | 00:00:00 | |
| DL9RDZ-1 | 2026-09-04 11:54:47 | 63.93795 | -22.48645 | 91° | 24km/h | 10830m | 4.0m/s | -48.0°C | 3.9% | 0hPa | 0V | 00:00:00 | 00:00:00 | 00:00:00 | |
| DL9RDZ-1 | 2026-09-04 11:54:37 | 63.93797 | -22.48775 | 98° | 24km/h | 10787m | 5.0m/s | -48.3°C | 4.7% | 0hPa | 0V | 00:00:00 | 00:00:00 | 00:00:00 | |
| DL9RDZ-1 | 2026-09-04 11:54:26 | 63.93797 | -22.48912 | 95° | 15km/h | 10739m | 3.4m/s | -49.0°C | 5.1% | 0hPa | 0V | 00:00:00 | 00:00:00 | 00:00:00 | |
| DL9RDZ-1 | 2026-09-04 11:54:05 | 63.93793 | -22.49117 | 95° | 16km/h | 10647m | 4.6m/s | -49.3°C | 5.2% | 0hPa | 0V | 00:00:00 | 00:00:00 | 00:00:00 | |
| DL9RDZ-1 | 2026-09-04 11:53:54 | 63.93785 | -22.49224 | 86° | 18km/h | 10599m | 3.2m/s | -49.1°C | 5.4% | 0hPa | 0V | 00:00:00 | 00:00:00 | 00:00:00 | |
| DL9RDZ-1 | 2026-09-04 11:53:44 | 63.93773 | -22.49321 | 63° | 24km/h | 10556m | 3.7m/s | -49.4°C | 6.0% | 0hPa | 0V | 00:00:00 | 00:00:00 | 00:00:00 | |
| DL9RDZ-1 | 2026-09-04 11:53:33 | 63.93761 | -22.49442 | 85° | 20km/h | 10509m | 4.4m/s | -49.3°C | 6.4% | 0hPa | 0V | 00:00:00 | 00:00:00 | 00:00:00 | |
| DL9RDZ-1 | 2026-09-04 11:53:23 | 63.93762 | -22.49573 | 97° | 22km/h | 10465m | 5.1m/s | -50.2°C | 7.7% | 0hPa | 0V | 00:00:00 | 00:00:00 | 00:00:00 | |
| DL9RDZ-1 | 2026-09-04 11:53:13 | 63.93764 | -22.49722 | 98° | 26km/h | 10423m | 5.2m/s | -50.5°C | 8.7% | 0hPa | 0V | 00:00:00 | 00:00:00 | 00:00:00 | |
| DL9RDZ-1 | 2026-09-04 11:53:02 | 63.93771 | -22.49872 | 103° | 24km/h | 10372m | 5.7m/s | -51.6°C | 10.8% | 0hPa | 0V | 00:00:00 | 00:00:00 | 00:00:00 | |
| DL9RDZ-1 | 2026-09-04 11:52:52 | 63.93775 | -22.49987 | 99° | 16km/h | 10326m | 4.6m/s | -51.9°C | 12.9% | 0hPa | 0V | 00:00:00 | 00:00:00 | 00:00:00 | |
| DL9RDZ-1 | 2026-09-04 11:52:42 | 63.93776 | -22.50109 | 89° | 20km/h | 10276m | 4.3m/s | -52.2°C | 14.7% | 0hPa | 0V | 00:00:00 | 00:00:00 | 00:00:00 | |
| DL9RDZ-1 | 2026-09-04 11:52:30 | 63.93765 | -22.50223 | 69° | 16km/h | 10225m | 5.2m/s | -52.5°C | 17.9% | 0hPa | 0V | 00:00:00 | 00:00:00 | 00:00:00 | |
| DL9RDZ-1 | 2026-09-04 11:52:19 | 63.93750 | -22.50299 | 43° | 16km/h | 10175m | 3.5m/s | -53.2°C | 21.8% | 0hPa | 0V | 00:00:00 | 00:00:00 | 00:00:00 | |
| DL9RDZ-1 | 2026-09-04 11:52:09 | 63.93718 | -22.50378 | 38° | 20km/h | 10131m | 4.3m/s | -53.2°C | 21.6% | 0hPa | 0V | 00:00:00 | 00:00:00 | 00:00:00 | |
| DL9RDZ-1 | 2026-09-04 11:51:58 | 63.93674 | -22.50447 | 37° | 18km/h | 10082m | 4.2m/s | -53.1°C | 23.4% | 0hPa | 0V | 00:00:00 | 00:00:00 | 00:00:00 | |
| DL9RDZ-1 | 2026-09-04 11:51:47 | 63.93643 | -22.50556 | 52° | 22km/h | 10035m | 5.1m/s | -53.0°C | 25.7% | 0hPa | 0V | 00:00:00 | 00:00:00 | 00:00:00 | |
| DL9RDZ-1 | 2026-09-04 11:51:36 | 63.93605 | -22.50658 | 42° | 20km/h | 9986m | 3.8m/s | -53.0°C | 25.9% | 0hPa | 0V | 00:00:00 | 00:00:00 | 00:00:00 | |
| DL9RDZ-1 | 2026-09-04 11:51:26 | 63.93563 | -22.50716 | 29° | 20km/h | 9944m | 5.0m/s | -52.8°C | 27.1% | 0hPa | 0V | 00:00:00 | 00:00:00 | 00:00:00 | |
| DL9RDZ-1 | 2026-09-04 11:51:15 | 63.93522 | -22.50783 | 28° | 16km/h | 9896m | 3.1m/s | -52.6°C | 28.1% | 0hPa | 0V | 00:00:00 | 00:00:00 | 00:00:00 | |
| DL9RDZ-1 | 2026-09-04 11:51:05 | 63.93487 | -22.50838 | 34° | 20km/h | 9852m | 4.5m/s | -53.0°C | 31.3% | 0hPa | 0V | 00:00:00 | 00:00:00 | 00:00:00 | |
| DL9RDZ-1 | 2026-09-04 11:50:54 | 63.93456 | -22.50880 | 25° | 9km/h | 9806m | 4.6m/s | -53.6°C | 35.4% | 0hPa | 0V | 00:00:00 | 00:00:00 | 00:00:00 | |
| DL9RDZ-1 | 2026-09-04 11:50:43 | 63.93435 | -22.50901 | 34° | 4km/h | 9760m | 3.5m/s | -53.5°C | 36.3% | 0hPa | 0V | 00:00:00 | 00:00:00 | 00:00:00 | |
| DL9RDZ-1 | 2026-09-04 11:50:33 | 63.93425 | -22.50877 | 361° | 9km/h | 9718m | 3.7m/s | -53.3°C | 39.5% | 0hPa | 0V | 00:00:00 | 00:00:00 | 00:00:00 | |
| DL9RDZ-1 | 2026-09-04 11:50:22 | 63.93411 | -22.50901 | 49° | 11km/h | 9656m | 4.1m/s | -53.5°C | 44.2% | 0hPa | 0V | 00:00:00 | 00:00:00 | 00:00:00 | |
| DL9RDZ-1 | 2026-09-04 11:50:11 | 63.93387 | -22.50970 | 59° | 13km/h | 9604m | 4.5m/s | -53.3°C | 47.8% | 0hPa | 0V | 00:00:00 | 00:00:00 | 00:00:00 | |
| DL9RDZ-1 | 2026-09-04 11:50:00 | 63.93366 | -22.51057 | 57° | 18km/h | 9553m | 4.8m/s | -53.6°C | 52.9% | 0hPa | 0V | 00:00:00 | 00:00:00 | 00:00:00 | |
| DL9RDZ-1 | 2026-09-04 11:49:49 | 63.93345 | -22.51130 | 73° | 11km/h | 9503m | 5.0m/s | -53.3°C | 52.4% | 0hPa | 0V | 00:00:00 | 00:00:00 | 00:00:00 | |
| DL9RDZ-1 | 2026-09-04 11:49:38 | 63.93333 | -22.51205 | 93° | 9km/h | 9451m | 4.5m/s | -53.0°C | 52.5% | 0hPa | 0V | 00:00:00 | 00:00:00 | 00:00:00 | |
| DL9RDZ-1 | 2026-09-04 11:49:27 | 63.93321 | -22.51276 | 69° | 13km/h | 9402m | 5.4m/s | -52.8°C | 51.0% | 0hPa | 0V | 00:00:00 | 00:00:00 | 00:00:00 | |
| DL9RDZ-1 | 2026-09-04 11:49:17 | 63.93311 | -22.51332 | 83° | 13km/h | 9357m | 4.3m/s | -52.5°C | 47.1% | 0hPa | 0V | 00:00:00 | 00:00:00 | 00:00:00 | |
| DL9RDZ-1 | 2026-09-04 11:49:06 | 63.93301 | -22.51399 | 79° | 11km/h | 9306m | 4.2m/s | -52.2°C | 39.6% | 0hPa | 0V | 00:00:00 | 00:00:00 | 00:00:00 | |
| DL9RDZ-1 | 2026-09-04 11:48:45 | 63.93278 | -22.51495 | 27° | 5km/h | 9217m | 4.5m/s | -51.5°C | 40.1% | 0hPa | 0V | 00:00:00 | 00:00:00 | 00:00:00 | |
| DL9RDZ-1 | 2026-09-04 11:48:35 | 63.93266 | -22.51521 | 91° | 9km/h | 9170m | 4.9m/s | -51.3°C | 38.9% | 0hPa | 0V | 00:00:00 | 00:00:00 | 00:00:00 | |
| DL9RDZ-1 | 2026-09-04 11:48:24 | 63.93259 | -22.51577 | 78° | 18km/h | 9118m | 5.8m/s | -50.9°C | 39.7% | 0hPa | 0V | 00:00:00 | 00:00:00 | 00:00:00 | |
| DL9RDZ-1 | 2026-09-04 11:48:13 | 63.93237 | -22.51632 | 79° | 5km/h | 9063m | 6.2m/s | -50.9°C | 42.1% | 0hPa | 0V | 00:00:00 | 00:00:00 | 00:00:00 | |
| DL9RDZ-1 | 2026-09-04 11:48:02 | 63.93225 | -22.51682 | 53° | 13km/h | 9010m | 3.7m/s | -50.8°C | 44.9% | 0hPa | 0V | 00:00:00 | 00:00:00 | 00:00:00 | |
| DL9RDZ-1 | 2026-09-04 11:47:52 | 63.93212 | -22.51750 | 58° | 11km/h | 8959m | 5.7m/s | -50.6°C | 47.7% | 0hPa | 0V | 00:00:00 | 00:00:00 | 00:00:00 | |
| DL9RDZ-1 | 2026-09-04 11:47:41 | 63.93200 | -22.51793 | 57° | 9km/h | 8913m | 5.4m/s | -50.5°C | 55.3% | 0hPa | 0V | 00:00:00 | 00:00:00 | 00:00:00 | |
| DL9RDZ-1 | 2026-09-04 11:47:30 | 63.93184 | -22.51818 | 7° | 4km/h | 8861m | 4.6m/s | -50.5°C | 66.1% | 0hPa | 0V | 00:00:00 | 00:00:00 | 00:00:00 | |
| DL9RDZ-1 | 2026-09-04 11:47:20 | 63.93181 | -22.51829 | 136° | 4km/h | 8817m | 4.3m/s | -50.2°C | 64.5% | 0hPa | 0V | 00:00:00 | 00:00:00 | 00:00:00 | |
| DL9RDZ-1 | 2026-09-04 11:47:09 | 63.93177 | -22.51847 | 0° | 0km/h | 8767m | 5.2m/s | -49.7°C | 63.6% | 0hPa | 0V | 00:00:00 | 00:00:00 | 00:00:00 | |
| DL9RDZ-1 | 2026-09-04 11:46:58 | 63.93176 | -22.51869 | 111° | 4km/h | 8719m | 3.6m/s | -49.3°C | 63.0% | 0hPa | 0V | 00:00:00 | 00:00:00 | 00:00:00 | |
| DL9RDZ-1 | 2026-09-04 11:46:47 | 63.93181 | -22.51879 | 69° | 4km/h | 8672m | 3.0m/s | -48.9°C | 63.6% | 0hPa | 0V | 00:00:00 | 00:00:00 | 00:00:00 | |
| DL9RDZ-1 | 2026-09-04 11:46:37 | 63.93180 | -22.51896 | 67° | 4km/h | 8629m | 4.5m/s | -48.6°C | 63.0% | 0hPa | 0V | 00:00:00 | 00:00:00 | 00:00:00 | |
| DL9RDZ-1 | 2026-09-04 11:46:28 | 63.93181 | -22.51913 | 65° | 2km/h | 8585m | 2.7m/s | -48.2°C | 65.0% | 0hPa | 0V | 00:00:00 | 00:00:00 | 00:00:00 | |
| DL9RDZ-1 | 2026-09-04 11:46:16 | 63.93182 | -22.51939 | 157° | 7km/h | 8533m | 3.6m/s | -47.8°C | 61.3% | 0hPa | 0V | 00:00:00 | 00:00:00 | 00:00:00 | |
| DL9RDZ-1 | 2026-09-04 11:46:06 | 63.93179 | -22.51966 | 105° | 2km/h | 8491m | 4.3m/s | -47.4°C | 61.5% | 0hPa | 0V | 00:00:00 | 00:00:00 | 00:00:00 | |
| DL9RDZ-1 | 2026-09-04 11:45:55 | 63.93177 | -22.51992 | 80° | 7km/h | 8444m | 3.4m/s | -47.0°C | 59.8% | 0hPa | 0V | 00:00:00 | 00:00:00 | 00:00:00 | |
| DL9RDZ-1 | 2026-09-04 11:45:44 | 63.93176 | -22.52028 | 78° | 11km/h | 8397m | 4.4m/s | -46.6°C | 64.1% | 0hPa | 0V | 00:00:00 | 00:00:00 | 00:00:00 | |
| DL9RDZ-1 | 2026-09-04 11:45:34 | 63.93173 | -22.52065 | 83° | 9km/h | 8348m | 4.7m/s | -46.2°C | 61.8% | 0hPa | 0V | 00:00:00 | 00:00:00 | 00:00:00 | |
| DL9RDZ-1 | 2026-09-04 11:45:22 | 63.93170 | -22.52122 | 92° | 4km/h | 8299m | 5.2m/s | -45.7°C | 62.7% | 0hPa | 0V | 00:00:00 | 00:00:00 | 00:00:00 | |
| DL9RDZ-1 | 2026-09-04 11:45:12 | 63.93168 | -22.52156 | 87° | 5km/h | 8257m | 4.8m/s | -45.5°C | 65.3% | 0hPa | 0V | 00:00:00 | 00:00:00 | 00:00:00 | |
| DL9RDZ-1 | 2026-09-04 11:45:01 | 63.93166 | -22.52197 | 119° | 7km/h | 8208m | 4.4m/s | -45.2°C | 67.9% | 0hPa | 0V | 00:00:00 | 00:00:00 | 00:00:00 | |
| DL9RDZ-1 | 2026-09-04 11:44:51 | 63.93164 | -22.52237 | 66° | 9km/h | 8166m | 4.5m/s | -44.8°C | 67.0% | 0hPa | 0V | 00:00:00 | 00:00:00 | 00:00:00 | |
| DL9RDZ-1 | 2026-09-04 11:44:41 | 63.93161 | -22.52290 | 74° | 11km/h | 8120m | 4.0m/s | -44.5°C | 68.2% | 0hPa | 0V | 00:00:00 | 00:00:00 | 00:00:00 | |
| DL9RDZ-1 | 2026-09-04 11:44:30 | 63.93154 | -22.52354 | 49° | 9km/h | 8074m | 4.3m/s | -44.2°C | 74.6% | 0hPa | 0V | 00:00:00 | 00:00:00 | 00:00:00 | |
| DL9RDZ-1 | 2026-09-04 11:44:20 | 63.93145 | -22.52420 | 80° | 11km/h | 8030m | 4.9m/s | -43.8°C | 74.9% | 0hPa | 0V | 00:00:00 | 00:00:00 | 00:00:00 | |
| DL9RDZ-1 | 2026-09-04 11:44:09 | 63.93141 | -22.52492 | 88° | 13km/h | 7981m | 3.1m/s | -43.4°C | 68.3% | 0hPa | 0V | 00:00:00 | 00:00:00 | 00:00:00 | |
| DL9RDZ-1 | 2026-09-04 11:43:59 | 63.93136 | -22.52553 | 87° | 15km/h | 7938m | 4.6m/s | -43.0°C | 61.3% | 0hPa | 0V | 00:00:00 | 00:00:00 | 00:00:00 | |
| DL9RDZ-1 | 2026-09-04 11:43:48 | 63.93146 | -22.52612 | 132° | 15km/h | 7885m | 5.4m/s | -42.8°C | 66.3% | 0hPa | 0V | 00:00:00 | 00:00:00 | 00:00:00 | |
| DL9RDZ-1 | 2026-09-04 11:43:37 | 63.93149 | -22.52699 | 94° | 13km/h | 7824m | 5.1m/s | -42.3°C | 70.0% | 0hPa | 0V | 00:00:00 | 00:00:00 | 00:00:00 | |
| DL9RDZ-1 | 2026-09-04 11:43:27 | 63.93152 | -22.52770 | 89° | 13km/h | 7771m | 6.5m/s | -42.0°C | 71.5% | 0hPa | 0V | 00:00:00 | 00:00:00 | 00:00:00 | |
| DL9RDZ-1 | 2026-09-04 11:43:16 | 63.93155 | -22.52868 | 78° | 16km/h | 7715m | 4.3m/s | -41.5°C | 73.7% | 0hPa | 0V | 00:00:00 | 00:00:00 | 00:00:00 | |
| DL9RDZ-1 | 2026-09-04 11:43:05 | 63.93153 | -22.52958 | 81° | 15km/h | 7666m | 4.2m/s | -41.1°C | 72.8% | 0hPa | 0V | 00:00:00 | 00:00:00 | 00:00:00 | |
| DL9RDZ-1 | 2026-09-04 11:42:55 | 63.93153 | -22.53050 | 83° | 16km/h | 7621m | 4.2m/s | -40.7°C | 72.4% | 0hPa | 0V | 00:00:00 | 00:00:00 | 00:00:00 | |
| DL9RDZ-1 | 2026-09-04 11:42:45 | 63.93156 | -22.53133 | 95° | 16km/h | 7577m | 5.9m/s | -40.4°C | 68.3% | 0hPa | 0V | 00:00:00 | 00:00:00 | 00:00:00 | |
| DL9RDZ-1 | 2026-09-04 11:42:34 | 63.93158 | -22.53232 | 88° | 18km/h | 7520m | 4.5m/s | -39.9°C | 67.2% | 0hPa | 0V | 00:00:00 | 00:00:00 | 00:00:00 | |
| DL9RDZ-1 | 2026-09-04 11:42:24 | 63.93161 | -22.53308 | 124° | 13km/h | 7478m | 4.2m/s | -39.6°C | 71.2% | 0hPa | 0V | 00:00:00 | 00:00:00 | 00:00:00 | |
| DL9RDZ-1 | 2026-09-04 11:42:13 | 63.93168 | -22.53401 | 108° | 18km/h | 7431m | 4.1m/s | -39.3°C | 70.2% | 0hPa | 0V | 00:00:00 | 00:00:00 | 00:00:00 | |
| DL9RDZ-1 | 2026-09-04 11:42:02 | 63.93182 | -22.53509 | 121° | 16km/h | 7380m | 5.3m/s | -38.9°C | 65.7% | 0hPa | 0V | 00:00:00 | 00:00:00 | 00:00:00 | |
| DL9RDZ-1 | 2026-09-04 11:41:52 | 63.93198 | -22.53580 | 122° | 9km/h | 7328m | 5.2m/s | -38.5°C | 66.2% | 0hPa | 0V | 00:00:00 | 00:00:00 | 00:00:00 | |
| DL9RDZ-1 | 2026-09-04 11:41:42 | 63.93204 | -22.53683 | 114° | 13km/h | 7277m | 4.2m/s | -38.3°C | 63.1% | 0hPa | 0V | 00:00:00 | 00:00:00 | 00:00:00 | |
| DL9RDZ-1 | 2026-09-04 11:41:31 | 63.93229 | -22.53790 | 135° | 20km/h | 7213m | 7.1m/s | -37.8°C | 52.7% | 0hPa | 0V | 00:00:00 | 00:00:00 | 00:00:00 | |
| DL9RDZ-1 | 2026-09-04 11:41:21 | 63.93259 | -22.53894 | 129° | 22km/h | 7167m | 3.3m/s | -37.4°C | 49.0% | 0hPa | 0V | 00:00:00 | 00:00:00 | 00:00:00 | |
| DL9RDZ-1 | 2026-09-04 11:41:10 | 63.93296 | -22.54006 | 119° | 20km/h | 7123m | 4.0m/s | -37.1°C | 46.4% | 0hPa | 0V | 00:00:00 | 00:00:00 | 00:00:00 | |
| DL9RDZ-1 | 2026-09-04 11:41:00 | 63.93328 | -22.54115 | 131° | 22km/h | 7081m | 3.5m/s | -36.7°C | 45.9% | 0hPa | 0V | 00:00:00 | 00:00:00 | 00:00:00 | |
| DL9RDZ-1 | 2026-09-04 11:40:49 | 63.93364 | -22.54231 | 132° | 27km/h | 7033m | 4.4m/s | -36.3°C | 51.8% | 0hPa | 0V | 00:00:00 | 00:00:00 | 00:00:00 | |
| DL9RDZ-1 | 2026-09-04 11:40:39 | 63.93401 | -22.54327 | 137° | 22km/h | 6989m | 4.7m/s | -35.9°C | 47.9% | 0hPa | 0V | 00:00:00 | 00:00:00 | 00:00:00 | |
| DL9RDZ-1 | 2026-09-04 11:40:28 | 63.93442 | -22.54432 | 124° | 26km/h | 6944m | 4.1m/s | -35.5°C | 41.3% | 0hPa | 0V | 00:00:00 | 00:00:00 | 00:00:00 | |
| DL9RDZ-1 | 2026-09-04 11:40:18 | 63.93481 | -22.54534 | 127° | 24km/h | 6899m | 3.7m/s | -35.1°C | 38.8% | 0hPa | 0V | 00:00:00 | 00:00:00 | 00:00:00 | |
| DL9RDZ-1 | 2026-09-04 11:40:07 | 63.93526 | -22.54649 | 141° | 24km/h | 6851m | 4.1m/s | -34.6°C | 36.4% | 0hPa | 0V | 00:00:00 | 00:00:00 | 00:00:00 | |
| DL9RDZ-1 | 2026-09-04 11:39:56 | 63.93568 | -22.54749 | 134° | 24km/h | 6803m | 3.8m/s | -34.2°C | 35.3% | 0hPa | 0V | 00:00:00 | 00:00:00 | 00:00:00 | |
| DL9RDZ-1 | 2026-09-04 11:39:09 | 63.93755 | -22.55195 | 118° | 33km/h | 6604m | 3.5m/s | -32.5°C | 33.7% | 0hPa | 0V | 00:00:00 | 00:00:00 | 00:00:00 | |
| DL9RDZ-1 | 2026-09-04 11:38:47 | 63.93866 | -22.55458 | 130° | 27km/h | 6493m | 4.6m/s | -31.5°C | 31.4% | 0hPa | 0V | 00:00:00 | 00:00:00 | 00:00:00 | |
| DL9RDZ-1 | 2026-09-04 11:38:36 | 63.93919 | -22.55577 | 137° | 26km/h | 6441m | 4.3m/s | -31.1°C | 30.6% | 0hPa | 0V | 00:00:00 | 00:00:00 | 00:00:00 | |
| DL9RDZ-1 | 2026-09-04 11:38:25 | 63.93975 | -22.55699 | 150° | 27km/h | 6387m | 4.6m/s | -30.7°C | 35.1% | 0hPa | 0V | 00:00:00 | 00:00:00 | 00:00:00 | |
| DL9RDZ-1 | 2026-09-04 11:38:14 | 63.94039 | -22.55825 | 134° | 31km/h | 6327m | 4.7m/s | -30.1°C | 32.1% | 0hPa | 0V | 00:00:00 | 00:00:00 | 00:00:00 | |
| DL9RDZ-1 | 2026-09-04 11:38:04 | 63.94093 | -22.55954 | 128° | 27km/h | 6272m | 4.7m/s | -29.5°C | 29.1% | 0hPa | 0V | 00:00:00 | 00:00:00 | 00:00:00 | |
| DL9RDZ-1 | 2026-09-04 11:37:41 | 63.94222 | -22.56257 | 131° | 37km/h | 6152m | 4.8m/s | -28.5°C | 27.0% | 0hPa | 0V | 00:00:00 | 00:00:00 | 00:00:00 | |
| DL9RDZ-1 | 2026-09-04 11:37:30 | 63.94279 | -22.56404 | 133° | 33km/h | 6097m | 4.0m/s | -28.0°C | 26.0% | 0hPa | 0V | 00:00:00 | 00:00:00 | 00:00:00 | |
| DL9RDZ-1 | 2026-09-04 11:37:19 | 63.94332 | -22.56552 | 127° | 33km/h | 6050m | 4.1m/s | -27.6°C | 26.4% | 0hPa | 0V | 00:00:00 | 00:00:00 | 00:00:00 | |
| DL9RDZ-1 | 2026-09-04 11:37:09 | 63.94379 | -22.56697 | 125° | 31km/h | 6006m | 4.2m/s | -27.2°C | 27.1% | 0hPa | 0V | 00:00:00 | 00:00:00 | 00:00:00 | |
| DL9RDZ-1 | 2026-09-04 11:36:58 | 63.94427 | -22.56858 | 129° | 27km/h | 5959m | 2.6m/s | -26.7°C | 26.3% | 0hPa | 0V | 00:00:00 | 00:00:00 | 00:00:00 | |
| DL9RDZ-1 | 2026-09-04 11:36:48 | 63.94474 | -22.56977 | 131° | 29km/h | 5916m | 5.1m/s | -26.3°C | 23.7% | 0hPa | 0V | 00:00:00 | 00:00:00 | 00:00:00 | |
| DL9RDZ-1 | 2026-09-04 11:36:38 | 63.94522 | -22.57068 | 140° | 27km/h | 5868m | 5.8m/s | -26.0°C | 17.6% | 0hPa | 0V | 00:00:00 | 00:00:00 | 00:00:00 | |
| DL9RDZ-1 | 2026-09-04 11:36:27 | 63.94562 | -22.57213 | 129° | 27km/h | 5807m | 4.7m/s | -25.6°C | 15.2% | 0hPa | 0V | 00:00:00 | 00:00:00 | 00:00:00 | |
| DL9RDZ-1 | 2026-09-04 11:36:17 | 63.94604 | -22.57366 | 121° | 27km/h | 5761m | 4.2m/s | -25.4°C | 28.2% | 0hPa | 0V | 00:00:00 | 00:00:00 | 00:00:00 | |
| DL9RDZ-1 | 2026-09-04 11:36:07 | 63.94633 | -22.57479 | 125° | 24km/h | 5702m | 5.5m/s | -24.8°C | 15.9% | 0hPa | 0V | 00:00:00 | 00:00:00 | 00:00:00 | |
| DL9RDZ-1 | 2026-09-04 11:35:56 | 63.94666 | -22.57580 | 115° | 16km/h | 5655m | 4.5m/s | -24.7°C | 47.5% | 0hPa | 0V | 00:00:00 | 00:00:00 | 00:00:00 | |
| DL9RDZ-1 | 2026-09-04 11:35:50 | 63.94688 | -22.57684 | 116° | 26km/h | 5610m | 5.5m/s | -24.4°C | 49.6% | 0hPa | 0V | 00:00:00 | 00:00:00 | 00:00:00 | |
| DL9RDZ-1 | 2026-09-04 11:35:35 | 63.94707 | -22.57769 | 106° | 11km/h | 5569m | 4.5m/s | -24.1°C | 56.4% | 0hPa | 0V | 00:00:00 | 00:00:00 | 00:00:00 | |
| DL9RDZ-1 | 2026-09-04 11:35:24 | 63.94730 | -22.57877 | 95° | 16km/h | 5523m | 5.0m/s | -23.7°C | 62.7% | 0hPa | 0V | 00:00:00 | 00:00:00 | 00:00:00 | |
| DL9RDZ-1 | 2026-09-04 11:35:13 | 63.94744 | -22.57951 | 130° | 18km/h | 5467m | 5.3m/s | -23.4°C | 67.4% | 0hPa | 0V | 00:00:00 | 00:00:00 | 00:00:00 | |
| DL9RDZ-1 | 2026-09-04 11:35:03 | 63.94753 | -22.58022 | 107° | 18km/h | 5419m | 5.5m/s | -23.0°C | 65.9% | 0hPa | 0V | 00:00:00 | 00:00:00 | 00:00:00 | |
| DL9RDZ-1 | 2026-09-04 11:34:53 | 63.94773 | -22.58089 | 151° | 13km/h | 5358m | 5.2m/s | -22.7°C | 69.9% | 0hPa | 0V | 00:00:00 | 00:00:00 | 00:00:00 | |
| DL9RDZ-1 | 2026-09-04 11:34:41 | 63.94801 | -22.58161 | 143° | 9km/h | 5303m | 5.1m/s | -22.3°C | 71.7% | 0hPa | 0V | 00:00:00 | 00:00:00 | 00:00:00 | |
| DL9RDZ-1 | 2026-09-04 11:34:29 | 63.94835 | -22.58208 | 132° | 13km/h | 5244m | 5.1m/s | -21.9°C | 75.5% | 0hPa | 0V | 00:00:00 | 00:00:00 | 00:00:00 | |
| DL9RDZ-1 | 2026-09-04 11:34:18 | 63.94849 | -22.58284 | 140° | 15km/h | 5191m | 4.3m/s | -21.5°C | 76.7% | 0hPa | 0V | 00:00:00 | 00:00:00 | 00:00:00 | |
| DL9RDZ-1 | 2026-09-04 11:34:08 | 63.94870 | -22.58338 | 131° | 11km/h | 5147m | 3.5m/s | -21.2°C | 75.3% | 0hPa | 0V | 00:00:00 | 00:00:00 | 00:00:00 | |
| DL9RDZ-1 | 2026-09-04 11:33:57 | 63.94902 | -22.58388 | 121° | 13km/h | 5092m | 6.7m/s | -20.8°C | 65.3% | 0hPa | 0V | 00:00:00 | 00:00:00 | 00:00:00 | |
| DL9RDZ-1 | 2026-09-04 11:33:46 | 63.94934 | -22.58415 | 137° | 24km/h | 5028m | 5.0m/s | -20.2°C | 60.2% | 0hPa | 0V | 00:00:00 | 00:00:00 | 00:00:00 | |
| DL9RDZ-1 | 2026-09-04 11:33:36 | 63.94969 | -22.58520 | 156° | 15km/h | 4973m | 5.6m/s | -19.7°C | 55.8% | 0hPa | 0V | 00:00:00 | 00:00:00 | 00:00:00 | |
| DL9RDZ-1 | 2026-09-04 11:33:26 | 63.94999 | -22.58546 | 168° | 15km/h | 4927m | 6.5m/s | -19.3°C | 47.7% | 0hPa | 0V | 00:00:00 | 00:00:00 | 00:00:00 | |
| DL9RDZ-1 | 2026-09-04 11:33:15 | 63.95030 | -22.58596 | 102° | 13km/h | 4868m | 3.7m/s | -18.8°C | 47.1% | 0hPa | 0V | 00:00:00 | 00:00:00 | 00:00:00 | |
| DL9RDZ-1 | 2026-09-04 11:33:04 | 63.95051 | -22.58685 | 135° | 24km/h | 4810m | 4.9m/s | -18.3°C | 48.6% | 0hPa | 0V | 00:00:00 | 00:00:00 | 00:00:00 | |
| DL9RDZ-1 | 2026-09-04 11:32:53 | 63.95090 | -22.58770 | 132° | 24km/h | 4750m | 5.2m/s | -18.1°C | 50.4% | 0hPa | 0V | 00:00:00 | 00:00:00 | 00:00:00 | |
| DL9RDZ-1 | 2026-09-04 11:32:43 | 63.95115 | -22.58845 | 145° | 18km/h | 4707m | 3.7m/s | -17.7°C | 49.7% | 0hPa | 0V | 00:00:00 | 00:00:00 | 00:00:00 | |
| DL9RDZ-1 | 2026-09-04 11:32:32 | 63.95151 | -22.58905 | 152° | 18km/h | 4663m | 3.1m/s | -17.4°C | 49.4% | 0hPa | 0V | 00:00:00 | 00:00:00 | 00:00:00 | |
| DL9RDZ-1 | 2026-09-04 11:31:59 | 63.95266 | -22.59102 | 129° | 11km/h | 4499m | 4.2m/s | -16.2°C | 45.4% | 0hPa | 0V | 00:00:00 | 00:00:00 | 00:00:00 | |
| DL9RDZ-1 | 2026-09-04 11:31:47 | 63.95294 | -22.59172 | 132° | 26km/h | 4453m | 5.7m/s | -15.8°C | 46.1% | 0hPa | 0V | 00:00:00 | 00:00:00 | 00:00:00 | |
| DL9RDZ-1 | 2026-09-04 11:30:59 | 63.95444 | -22.59569 | 124° | 16km/h | 4202m | 4.6m/s | -14.0°C | 49.6% | 0hPa | 0V | 00:00:00 | 00:00:00 | 00:00:00 | |
| DL9RDZ-1 | 2026-09-04 11:30:48 | 63.95484 | -22.59659 | 120° | 24km/h | 4155m | 3.8m/s | -13.5°C | 51.5% | 0hPa | 0V | 00:00:00 | 00:00:00 | 00:00:00 | |
| DL9RDZ-1 | 2026-09-04 11:30:37 | 63.95528 | -22.59728 | 129° | 26km/h | 4094m | 6.0m/s | -13.4°C | 63.2% | 0hPa | 0V | 00:00:00 | 00:00:00 | 00:00:00 | |
| DL9RDZ-1 | 2026-09-04 11:30:27 | 63.95561 | -22.59762 | 176° | 16km/h | 4042m | 2.6m/s | -13.2°C | 70.5% | 0hPa | 0V | 00:00:00 | 00:00:00 | 00:00:00 | |
| DL9RDZ-1 | 2026-09-04 11:30:17 | 63.95611 | -22.59829 | 157° | 11km/h | 3995m | 7.1m/s | -13.0°C | 73.7% | 0hPa | 0V | 00:00:00 | 00:00:00 | 00:00:00 | |
| DL9RDZ-1 | 2026-09-04 11:30:05 | 63.95636 | -22.59856 | 190° | 11km/h | 3947m | 5.4m/s | -12.7°C | 72.8% | 0hPa | 0V | 00:00:00 | 00:00:00 | 00:00:00 | |
| DL9RDZ-1 | 2026-09-04 11:29:55 | 63.95657 | -22.59851 | 165° | 16km/h | 3903m | 3.3m/s | -12.3°C | 72.0% | 0hPa | 0V | 00:00:00 | 00:00:00 | 00:00:00 | |
| DL9RDZ-1 | 2026-09-04 11:29:45 | 63.95685 | -22.59869 | 173° | 15km/h | 3859m | 6.2m/s | -12.1°C | 69.4% | 0hPa | 0V | 00:00:00 | 00:00:00 | 00:00:00 | |
| DL9RDZ-1 | 2026-09-04 11:29:35 | 63.95701 | -22.59882 | 133° | 9km/h | 3800m | 5.0m/s | -11.8°C | 69.7% | 0hPa | 0V | 00:00:00 | 00:00:00 | 00:00:00 | |
| DL9RDZ-1 | 2026-09-04 11:29:25 | 63.95703 | -22.59902 | 116° | 13km/h | 3753m | 6.4m/s | -11.4°C | 68.9% | 0hPa | 0V | 00:00:00 | 00:00:00 | 00:00:00 | |
| DL9RDZ-1 | 2026-09-04 11:29:14 | 63.95723 | -22.59951 | 143° | 11km/h | 3693m | 5.1m/s | -10.9°C | 64.3% | 0hPa | 0V | 00:00:00 | 00:00:00 | 00:00:00 | |
| DL9RDZ-1 | 2026-09-04 11:29:04 | 63.95747 | -22.59955 | 176° | 2km/h | 3644m | 6.6m/s | -10.6°C | 63.2% | 0hPa | 0V | 00:00:00 | 00:00:00 | 00:00:00 | |
| DL9RDZ-1 | 2026-09-04 11:28:53 | 63.95779 | -22.59968 | 0° | 0km/h | 3596m | 6.2m/s | -10.1°C | 62.8% | 0hPa | 0V | 00:00:00 | 00:00:00 | 00:00:00 | |
| DL9RDZ-1 | 2026-09-04 11:25:35 | 63.95831 | -22.59629 | 251° | 11km/h | 2589m | 5.4m/s | -5.1°C | 82.6% | 0hPa | 0V | 00:00:00 | 00:00:00 | 00:00:00 | |
| DL9RDZ-1 | 2026-09-04 11:25:24 | 63.95824 | -22.59633 | 67° | 9km/h | 2530m | 5.4m/s | -4.8°C | 82.0% | 0hPa | 0V | 00:00:00 | 00:00:00 | 00:00:00 | |
| DL9RDZ-1 | 2026-09-04 11:24:24 | 63.95822 | -22.59630 | 120° | 11km/h | 2212m | 5.1m/s | -3.1°C | 82.4% | 0hPa | 0V | 00:00:00 | 00:00:00 | 00:00:00 | |
| DL9RDZ-1 | 2026-09-04 11:24:12 | 63.95834 | -22.59642 | 164° | 11km/h | 2142m | 4.3m/s | -2.9°C | 87.6% | 0hPa | 0V | 00:00:00 | 00:00:00 | 00:00:00 | |
| DL9RDZ-1 | 2026-09-04 11:23:49 | 63.95828 | -22.59695 | 268° | 2km/h | 2021m | 4.9m/s | -2.5°C | 84.1% | 0hPa | 0V | 00:00:00 | 00:00:00 | 00:00:00 | |
| DL9RDZ-1 | 2026-09-04 11:23:39 | 63.95829 | -22.59727 | 110° | 13km/h | 1960m | 7.3m/s | -2.2°C | 82.5% | 0hPa | 0V | 00:00:00 | 00:00:00 | 00:00:00 | |
| DL9RDZ-1 | 2026-09-04 11:23:29 | 63.95836 | -22.59766 | 101° | 11km/h | 1900m | 6.5m/s | -2.0°C | 81.6% | 0hPa | 0V | 00:00:00 | 00:00:00 | 00:00:00 | |
| DL9RDZ-1 | 2026-09-04 11:23:18 | 63.95862 | -22.59846 | 108° | 13km/h | 1843m | 4.4m/s | -1.8°C | 71.9% | 0hPa | 0V | 00:00:00 | 00:00:00 | 00:00:00 | |
| DL9RDZ-1 | 2026-09-04 11:23:08 | 63.95879 | -22.59937 | 155° | 15km/h | 1792m | 5.9m/s | -1.6°C | 0% | 0hPa | 0V | 00:00:00 | 00:00:00 | 00:00:00 | |
| DL9RDZ-1 | 2026-09-04 11:22:58 | 63.95898 | -22.59982 | 134° | 11km/h | 1739m | 7.4m/s | 0°C | 0% | 0hPa | 0V | 00:00:00 | 00:00:00 | 00:00:00 | |
| DL9RDZ-1 | 2026-09-04 11:22:47 | 63.95919 | -22.60021 | 167° | 11km/h | 1674m | 6.4m/s | 0°C | 0% | 0hPa | 0V | 00:00:00 | 00:00:00 | 00:00:00 | |
| DL9RDZ-1 | 2026-09-04 11:21:50 | 63.96041 | -22.60145 | 216° | 11km/h | 1351m | 4.0m/s | 0°C | 0% | 0hPa | 0V | 00:00:00 | 00:00:00 | 00:00:00 | |
| DL9RDZ-1 | 2026-09-04 11:21:39 | 63.96064 | -22.60145 | 174° | 15km/h | 1290m | 5.4m/s | 0°C | 0% | 0hPa | 0V | 00:00:00 | 00:00:00 | 00:00:00 | |
| DL9RDZ-1 | 2026-09-04 11:21:28 | 63.96083 | -22.60173 | 352° | 4km/h | 1229m | 5.4m/s | 0°C | 0% | 0hPa | 0V | 00:00:00 | 00:00:00 | 00:00:00 | |
| DL9RDZ-1 | 2026-09-04 11:21:15 | 63.96110 | -22.60162 | 173° | 20km/h | 1146m | 3.6m/s | 0°C | 0% | 0hPa | 0V | 00:00:00 | 00:00:00 | 00:00:00 | |
| DL9RDZ-1 | 2026-09-04 11:21:04 | 63.96153 | -22.60176 | 187° | 13km/h | 1080m | 6.4m/s | 0°C | 0% | 0hPa | 0V | 00:00:00 | 00:00:00 | 00:00:00 | |
| DL9RDZ-1 | 2026-09-04 11:20:51 | 63.96187 | -22.60204 | 122° | 7km/h | 1016m | 6.5m/s | 0°C | 0% | 0hPa | 0V | 00:00:00 | 00:00:00 | 00:00:00 | |
| DL9RDZ-1 | 2026-09-04 11:20:32 | 63.96243 | -22.60296 | 175° | 9km/h | 919m | 4.5m/s | 0°C | 0% | 0hPa | 0V | 00:00:00 | 00:00:00 | 00:00:00 | |
| DL9RDZ-1 | 2026-09-04 11:20:19 | 63.96273 | -22.60384 | 102° | 9km/h | 861m | 7.4m/s | 0°C | 0% | 0hPa | 0V | 00:00:00 | 00:00:00 | 00:00:00 | |
| DL9RDZ-1 | 2026-09-04 11:20:09 | 63.96304 | -22.60437 | 183° | 9km/h | 809m | 3.5m/s | 0°C | 0% | 0hPa | 0V | 00:00:00 | 00:00:00 | 00:00:00 | |
| DL9RDZ-1 | 2026-09-04 11:19:58 | 63.96347 | -22.60486 | 165° | 27km/h | 762m | 4.4m/s | 0°C | 0% | 0hPa | 0V | 00:00:00 | 00:00:00 | 00:00:00 |